Time,TemperatureF,DewpointF,PressureIn,WindDirection,WindDirectionDegrees,WindSpeedMPH,WindSpeedGustMPH,Humidity,HourlyPrecipIn,Conditions,Clouds,dailyrainin,SoftwareType,DateUTC
2013-03-01 00:00:00,20.5,-8.2,30.07,NNE,20,4.7,9.4,27,0.00,,---,0.00,VWS V14.00,2013-03-01 05:00:00,
2013-03-01 00:05:00,20.3,-8.3,30.07,North,357,11.4,11.4,27,0.00,,---,0.00,VWS V14.00,2013-03-01 05:05:00,
2013-03-01 00:06:00,20.3,-8.3,30.07,North,0,7.4,8.1,27,0.00,,---,0.00,VWS V14.00,2013-03-01 05:06:00,
2013-03-01 00:10:00,20.3,-8.3,30.07,North,357,9.4,9.4,27,0.00,,---,0.00,VWS V14.00,2013-03-01 05:10:00,
2013-03-01 00:11:00,20.3,-8.3,30.07,NNW,346,10.1,10.1,27,0.00,,---,0.00,VWS V14.00,2013-03-01 05:11:00,
2013-03-01 00:15:00,20.3,-8.3,30.07,North,357,6.0,6.0,27,0.00,,---,0.00,VWS V14.00,2013-03-01 05:15:00,
2013-03-01 00:16:00,20.3,-8.3,30.07,North,10,6.0,6.0,27,0.00,,---,0.00,VWS V14.00,2013-03-01 05:16:00,
2013-03-01 00:20:00,20.3,-8.3,30.07,North,353,8.7,8.7,27,0.00,,---,0.00,VWS V14.00,2013-03-01 05:20:00,
2013-03-01 00:21:00,20.3,-8.3,30.07,North,353,8.7,8.7,27,0.00,,---,0.00,VWS V14.00,2013-03-01 05:21:00,
2013-03-01 00:25:00,20.3,-8.3,30.07,North,6,8.7,8.7,27,0.00,,---,0.00,VWS V14.00,2013-03-01 05:25:00,
2013-03-01 00:26:00,20.3,-8.3,30.07,North,0,6.0,8.7,27,0.00,,---,0.00,VWS V14.00,2013-03-01 05:26:00,
2013-03-01 00:30:00,20.1,-8.5,30.07,North,0,8.7,8.7,27,0.00,,---,0.00,VWS V14.00,2013-03-01 05:30:00,
2013-03-01 00:31:00,20.1,-8.5,30.07,North,10,5.4,5.4,27,0.00,,---,0.00,VWS V14.00,2013-03-01 05:31:00,
2013-03-01 00:35:00,20.1,-8.5,30.07,North,3,8.1,12.4,27,0.00,,---,0.00,VWS V14.00,2013-03-01 05:35:00,
2013-03-01 00:36:00,20.1,-8.5,30.07,North,4,9.4,12.4,27,0.00,,---,0.00,VWS V14.00,2013-03-01 05:36:00,
2013-03-01 00:40:00,19.9,-8.6,30.07,North,0,13.1,13.1,27,0.00,,---,0.00,VWS V14.00,2013-03-01 05:40:00,
2013-03-01 00:41:00,19.9,-8.6,30.07,North,7,8.1,8.1,27,0.00,,---,0.00,VWS V14.00,2013-03-01 05:41:00,
2013-03-01 00:45:00,19.9,-8.6,30.07,North,349,11.4,12.1,27,0.00,,---,0.00,VWS V14.00,2013-03-01 05:45:00,
2013-03-01 00:46:00,19.9,-8.6,30.07,North,350,11.4,12.1,27,0.00,,---,0.00,VWS V14.00,2013-03-01 05:46:00,
2013-03-01 00:50:00,19.8,-6.7,30.07,North,353,11.4,15.1,30,0.00,,---,0.00,VWS V14.00,2013-03-01 05:50:00,
2013-03-01 00:51:00,19.8,-8.8,30.07,North,0,11.4,11.4,27,0.00,,---,0.00,VWS V14.00,2013-03-01 05:51:00,
2013-03-01 00:55:00,19.8,-6.7,30.07,North,7,9.4,9.4,30,0.00,,---,0.00,VWS V14.00,2013-03-01 05:55:00,
2013-03-01 00:56:00,19.8,-6.7,30.07,NNE,16,6.0,6.7,30,0.00,,---,0.00,VWS V14.00,2013-03-01 05:56:00,
2013-03-01 01:00:00,19.8,-6.7,30.07,North,350,12.1,12.1,30,0.00,,---,0.00,VWS V14.00,2013-03-01 06:00:00,
2013-03-01 01:01:00,19.8,-6.7,30.07,NNE,14,6.0,7.4,30,0.00,,---,0.00,VWS V14.00,2013-03-01 06:01:00,
2013-03-01 01:06:00,19.8,-6.7,30.04,North,357,8.1,8.1,30,0.00,,---,0.00,VWS V14.00,2013-03-01 06:06:00,
2013-03-01 01:11:00,19.8,-5.3,30.04,North,0,6.0,8.7,32,0.00,,---,0.00,VWS V14.00,2013-03-01 06:11:00,
2013-03-01 01:16:00,19.6,-5.5,30.04,North,2,12.1,12.1,32,0.00,,---,0.00,VWS V14.00,2013-03-01 06:16:00,
2013-03-01 01:21:00,19.6,-4.8,30.04,North,5,8.1,9.4,33,0.00,,---,0.00,VWS V14.00,2013-03-01 06:21:00,
2013-03-01 01:26:00,19.6,-4.8,30.04,North,1,5.4,5.4,33,0.00,,---,0.00,VWS V14.00,2013-03-01 06:26:00,
2013-03-01 01:27:00,19.6,-4.8,30.04,North,357,6.0,8.7,33,0.00,,---,0.00,VWS V14.00,2013-03-01 06:27:00,
2013-03-01 01:31:00,19.6,-4.8,30.04,North,1,7.4,7.4,33,0.00,,---,0.00,VWS V14.00,2013-03-01 06:31:00,
2013-03-01 01:32:00,19.6,-4.8,30.04,North,0,5.4,7.4,33,0.00,,---,0.00,VWS V14.00,2013-03-01 06:32:00,
2013-03-01 01:36:00,19.4,-5.0,30.07,NNE,18,8.1,12.4,33,0.00,,---,0.00,VWS V14.00,2013-03-01 06:36:00,
2013-03-01 01:37:00,19.4,-5.0,30.07,NNE,17,5.4,12.4,33,0.00,,---,0.00,VWS V14.00,2013-03-01 06:37:00,
2013-03-01 01:41:00,19.4,-5.0,30.07,North,0,11.4,12.1,33,0.00,,---,0.00,VWS V14.00,2013-03-01 06:41:00,
2013-03-01 01:42:00,19.4,-5.0,30.07,NNW,345,8.1,12.1,33,0.00,,---,0.00,VWS V14.00,2013-03-01 06:42:00,
2013-03-01 01:46:00,19.4,-5.0,30.07,North,0,9.4,12.1,33,0.00,,---,0.00,VWS V14.00,2013-03-01 06:46:00,
2013-03-01 01:47:00,19.4,-5.0,30.07,North,1,4.7,12.1,33,0.00,,---,0.00,VWS V14.00,2013-03-01 06:47:00,
2013-03-01 01:51:00,19.2,-5.2,30.07,NNE,21,8.7,9.4,33,0.00,,---,0.00,VWS V14.00,2013-03-01 06:51:00,
2013-03-01 01:52:00,19.2,-5.2,30.07,North,11,8.7,9.4,33,0.00,,---,0.00,VWS V14.00,2013-03-01 06:52:00,
2013-03-01 01:56:00,19.2,-5.2,30.07,North,0,7.4,12.1,33,0.00,,---,0.00,VWS V14.00,2013-03-01 06:56:00,
2013-03-01 01:57:00,19.2,-5.2,30.07,North,0,7.4,12.1,33,0.00,,---,0.00,VWS V14.00,2013-03-01 06:57:00,
2013-03-01 02:01:00,19.2,-5.2,30.07,North,0,8.1,9.4,33,0.00,,---,0.00,VWS V14.00,2013-03-01 07:01:00,
2013-03-01 02:02:00,19.2,-5.2,30.07,North,2,8.7,9.4,33,0.00,,---,0.00,VWS V14.00,2013-03-01 07:02:00,
2013-03-01 02:07:00,19.2,-4.5,30.07,North,7,9.4,9.4,34,0.00,,---,0.00,VWS V14.00,2013-03-01 07:07:00,
2013-03-01 02:12:00,19.0,-4.7,30.07,North,357,6.0,6.0,34,0.00,,---,0.00,VWS V14.00,2013-03-01 07:12:00,
2013-03-01 02:17:00,19.0,-4.7,30.07,NNE,12,9.4,9.4,34,0.00,,---,0.00,VWS V14.00,2013-03-01 07:17:00,
2013-03-01 02:22:00,19.0,-4.7,30.07,North,353,8.1,8.7,34,0.00,,---,0.00,VWS V14.00,2013-03-01 07:22:00,
2013-03-01 02:27:00,18.9,-4.9,30.07,North,3,7.4,8.7,34,0.00,,---,0.00,VWS V14.00,2013-03-01 07:27:00,
2013-03-01 02:32:00,18.9,-4.9,30.07,North,1,9.4,9.4,34,0.00,,---,0.00,VWS V14.00,2013-03-01 07:32:00,
2013-03-01 02:37:00,18.9,-4.9,30.07,NNW,338,11.4,11.4,34,0.00,,---,0.00,VWS V14.00,2013-03-01 07:37:00,
2013-03-01 02:38:00,18.9,-4.9,30.07,NNW,345,8.7,11.4,34,0.00,,---,0.00,VWS V14.00,2013-03-01 07:38:00,
2013-03-01 02:42:00,18.7,-5.0,30.07,NNE,16,9.4,12.4,34,0.00,,---,0.00,VWS V14.00,2013-03-01 07:42:00,
2013-03-01 02:43:00,18.7,-5.0,30.07,North,353,8.1,8.1,34,0.00,,---,0.00,VWS V14.00,2013-03-01 07:43:00,
2013-03-01 02:47:00,18.7,-4.4,30.07,North,353,8.1,8.1,35,0.00,,---,0.00,VWS V14.00,2013-03-01 07:47:00,
2013-03-01 02:48:00,18.7,-4.4,30.07,NNW,344,8.1,8.1,35,0.00,,---,0.00,VWS V14.00,2013-03-01 07:48:00,
2013-03-01 02:52:00,18.7,-4.4,30.07,North,0,8.7,12.1,35,0.00,,---,0.00,VWS V14.00,2013-03-01 07:52:00,
2013-03-01 02:53:00,18.7,-4.4,30.07,North,357,6.0,12.1,35,0.00,,---,0.00,VWS V14.00,2013-03-01 07:53:00,
2013-03-01 02:57:00,18.7,-4.4,30.07,NNW,346,4.7,10.1,35,0.00,,---,0.00,VWS V14.00,2013-03-01 07:57:00,
2013-03-01 02:58:00,18.7,-5.0,30.07,North,353,10.7,10.7,34,0.00,,---,0.00,VWS V14.00,2013-03-01 07:58:00,
2013-03-01 03:03:00,18.5,-4.6,30.07,NNW,336,9.4,10.7,35,0.00,,---,0.00,VWS V14.00,2013-03-01 08:03:00,
2013-03-01 03:08:00,18.5,-4.6,30.07,North,8,6.0,9.4,35,0.00,,---,0.00,VWS V14.00,2013-03-01 08:08:00,
2013-03-01 03:13:00,18.5,-5.2,30.07,North,357,9.4,9.4,34,0.00,,---,0.00,VWS V14.00,2013-03-01 08:13:00,
2013-03-01 03:18:00,18.5,-4.6,30.07,NNW,348,9.4,9.4,35,0.00,,---,0.00,VWS V14.00,2013-03-01 08:18:00,
2013-03-01 03:19:00,18.5,-4.6,30.07,North,357,13.1,13.1,35,0.00,,---,0.00,VWS V14.00,2013-03-01 08:19:00,
2013-03-01 03:23:00,18.3,-5.3,30.07,North,0,8.7,9.4,34,0.00,,---,0.00,VWS V14.00,2013-03-01 08:23:00,
2013-03-01 03:28:00,18.3,-5.3,30.07,North,4,8.7,10.1,34,0.00,,---,0.00,VWS V14.00,2013-03-01 08:28:00,
2013-03-01 03:29:00,18.3,-5.3,30.07,NNW,346,9.4,10.1,34,0.00,,---,0.00,VWS V14.00,2013-03-01 08:29:00,
2013-03-01 03:33:00,18.3,-5.3,30.07,North,6,9.4,9.4,34,0.00,,---,0.00,VWS V14.00,2013-03-01 08:33:00,
2013-03-01 03:34:00,18.3,-5.3,30.07,North,0,10.7,10.7,34,0.00,,---,0.00,VWS V14.00,2013-03-01 08:34:00,
2013-03-01 03:38:00,18.1,-6.1,30.07,North,349,15.8,15.8,33,0.00,,---,0.00,VWS V14.00,2013-03-01 08:38:00,
2013-03-01 03:39:00,18.1,-6.1,30.07,North,7,12.1,12.1,33,0.00,,---,0.00,VWS V14.00,2013-03-01 08:39:00,
2013-03-01 03:43:00,18.1,-6.1,30.07,NNE,13,8.1,8.1,33,0.00,,---,0.00,VWS V14.00,2013-03-01 08:43:00,
2013-03-01 03:44:00,18.1,-8.1,30.07,North,4,6.0,8.1,30,0.00,,---,0.00,VWS V14.00,2013-03-01 08:44:00,
2013-03-01 03:48:00,18.0,-8.2,30.07,North,357,5.4,6.0,30,0.00,,---,0.00,VWS V14.00,2013-03-01 08:48:00,
2013-03-01 03:49:00,18.0,-8.2,30.07,North,353,9.4,9.4,30,0.00,,---,0.00,VWS V14.00,2013-03-01 08:49:00,
2013-03-01 03:53:00,17.8,-8.4,30.07,NNE,18,12.1,12.1,30,0.00,,---,0.00,VWS V14.00,2013-03-01 08:53:00,
2013-03-01 03:54:00,17.8,-8.4,30.07,NNE,26,9.4,12.1,30,0.00,,---,0.00,VWS V14.00,2013-03-01 08:54:00,
2013-03-01 03:58:00,17.8,-8.4,30.07,North,357,6.0,8.1,30,0.00,,---,0.00,VWS V14.00,2013-03-01 08:58:00,
2013-03-01 03:59:00,17.8,-8.4,30.07,North,4,8.7,8.7,30,0.00,,---,0.00,VWS V14.00,2013-03-01 08:59:00,
2013-03-01 04:04:00,17.6,-7.9,30.07,North,0,8.7,9.4,31,0.00,,---,0.00,VWS V14.00,2013-03-01 09:04:00,
2013-03-01 04:09:00,17.6,-7.9,30.07,North,357,9.4,12.1,31,0.00,,---,0.00,VWS V14.00,2013-03-01 09:09:00,
2013-03-01 04:14:00,17.6,-9.9,30.07,North,4,8.1,8.1,28,0.00,,---,0.00,VWS V14.00,2013-03-01 09:14:00,
2013-03-01 04:15:00,17.6,-9.9,30.07,NNE,20,7.4,7.4,28,0.00,,---,0.00,VWS V14.00,2013-03-01 09:15:00,
2013-03-01 04:19:00,17.6,-9.9,30.07,North,11,6.0,6.0,28,0.00,,---,0.00,VWS V14.00,2013-03-01 09:19:00,
2013-03-01 04:20:00,17.6,-9.9,30.07,North,7,7.4,9.4,28,0.00,,---,0.00,VWS V14.00,2013-03-01 09:20:00,
2013-03-01 04:24:00,17.6,-9.9,30.07,North,357,7.4,7.4,28,0.00,,---,0.00,VWS V14.00,2013-03-01 09:24:00,
2013-03-01 04:25:00,17.6,-9.9,30.07,North,2,9.4,9.4,28,0.00,,---,0.00,VWS V14.00,2013-03-01 09:25:00,
2013-03-01 04:29:00,17.6,-9.9,30.07,North,353,11.4,12.4,28,0.00,,---,0.00,VWS V14.00,2013-03-01 09:29:00,
2013-03-01 04:30:00,17.6,-9.9,30.07,North,0,8.1,12.4,28,0.00,,---,0.00,VWS V14.00,2013-03-01 09:30:00,
2013-03-01 04:34:00,17.4,-8.0,30.07,North,7,8.7,8.7,31,0.00,,---,0.00,VWS V14.00,2013-03-01 09:34:00,
2013-03-01 04:35:00,17.6,-7.9,30.07,North,0,6.0,8.7,31,0.00,,---,0.00,VWS V14.00,2013-03-01 09:35:00,
2013-03-01 04:39:00,17.4,-8.0,30.07,North,1,6.0,9.4,31,0.00,,---,0.00,VWS V14.00,2013-03-01 09:39:00,
2013-03-01 04:40:00,17.4,-8.0,30.07,North,11,5.4,5.4,31,0.00,,---,0.00,VWS V14.00,2013-03-01 09:40:00,
2013-03-01 04:41:00,17.4,-8.0,30.07,North,0,7.4,7.4,31,0.00,,---,0.00,VWS V14.00,2013-03-01 09:41:00,
2013-03-01 04:44:00,17.4,-8.0,30.07,North,357,9.4,9.4,31,0.00,,---,0.00,VWS V14.00,2013-03-01 09:44:00,
2013-03-01 04:45:00,17.4,-8.0,30.07,North,350,6.0,6.0,31,0.00,,---,0.00,VWS V14.00,2013-03-01 09:45:00,
2013-03-01 04:46:00,17.4,-6.8,30.07,North,0,8.7,8.7,33,0.00,,---,0.00,VWS V14.00,2013-03-01 09:46:00,
2013-03-01 04:49:00,17.4,-6.8,30.07,North,353,9.4,11.4,33,0.00,,---,0.00,VWS V14.00,2013-03-01 09:49:00,
2013-03-01 04:50:00,17.4,-6.8,30.07,North,1,9.4,11.4,33,0.00,,---,0.00,VWS V14.00,2013-03-01 09:50:00,
2013-03-01 04:51:00,17.4,-6.8,30.10,NNE,16,8.1,11.4,33,0.00,,---,0.00,VWS V14.00,2013-03-01 09:51:00,
2013-03-01 04:55:00,17.4,-6.1,30.10,NNW,333,9.4,12.4,34,0.00,,---,0.00,VWS V14.00,2013-03-01 09:55:00,
2013-03-01 04:56:00,17.4,-6.1,30.10,North,357,9.4,13.1,34,0.00,,---,0.00,VWS V14.00,2013-03-01 09:56:00,
2013-03-01 05:00:00,17.4,-6.1,30.10,NNE,16,6.0,6.0,34,0.00,,---,0.00,VWS V14.00,2013-03-01 10:00:00,
2013-03-01 05:01:00,17.4,-6.1,30.10,NNW,345,8.7,8.7,34,0.00,,---,0.00,VWS V14.00,2013-03-01 10:01:00,
2013-03-01 05:05:00,17.2,-6.3,30.10,NNW,346,8.7,9.4,34,0.00,,---,0.00,VWS V14.00,2013-03-01 10:05:00,
2013-03-01 05:06:00,17.2,-6.3,30.10,North,1,6.0,9.4,34,0.00,,---,0.00,VWS V14.00,2013-03-01 10:06:00,
2013-03-01 05:10:00,17.1,-6.5,30.10,North,0,13.1,13.1,34,0.00,,---,0.00,VWS V14.00,2013-03-01 10:10:00,
2013-03-01 05:11:00,17.1,-6.5,30.10,North,0,8.1,13.1,34,0.00,,---,0.00,VWS V14.00,2013-03-01 10:11:00,
2013-03-01 05:15:00,17.1,-6.5,30.10,NW,324,12.1,12.1,34,0.00,,---,0.00,VWS V14.00,2013-03-01 10:15:00,
2013-03-01 05:16:00,17.1,-6.5,30.10,North,353,12.1,12.1,34,0.00,,---,0.00,VWS V14.00,2013-03-01 10:16:00,
2013-03-01 05:20:00,17.1,-6.5,30.10,North,0,11.4,11.4,34,0.00,,---,0.00,VWS V14.00,2013-03-01 10:20:00,
2013-03-01 05:21:00,17.1,-6.5,30.10,North,357,8.7,8.7,34,0.00,,---,0.00,VWS V14.00,2013-03-01 10:21:00,
2013-03-01 05:25:00,17.1,-6.5,30.10,North,0,7.4,8.1,34,0.00,,---,0.00,VWS V14.00,2013-03-01 10:25:00,
2013-03-01 05:26:00,17.1,-6.5,30.10,North,4,8.7,8.7,34,0.00,,---,0.00,VWS V14.00,2013-03-01 10:26:00,
2013-03-01 05:30:00,16.9,-6.6,30.10,NNW,336,8.1,8.1,34,0.00,,---,0.00,VWS V14.00,2013-03-01 10:30:00,
2013-03-01 05:31:00,16.9,-6.6,30.10,NNW,339,9.4,9.4,34,0.00,,---,0.00,VWS V14.00,2013-03-01 10:31:00,
2013-03-01 05:35:00,16.9,-6.6,30.10,NNE,15,7.4,10.1,34,0.00,,---,0.00,VWS V14.00,2013-03-01 10:35:00,
2013-03-01 05:36:00,16.9,-6.6,30.10,NNE,13,5.4,6.0,34,0.00,,---,0.00,VWS V14.00,2013-03-01 10:36:00,
2013-03-01 05:40:00,16.9,-6.6,30.10,North,10,8.1,8.1,34,0.00,,---,0.00,VWS V14.00,2013-03-01 10:40:00,
2013-03-01 05:41:00,16.9,-6.6,30.10,North,353,8.7,11.4,34,0.00,,---,0.00,VWS V14.00,2013-03-01 10:41:00,
2013-03-01 05:45:00,16.9,-6.6,30.10,NW,321,8.1,8.7,34,0.00,,---,0.00,VWS V14.00,2013-03-01 10:45:00,
2013-03-01 05:46:00,16.9,-6.6,30.10,NNW,329,11.4,11.4,34,0.00,,---,0.00,VWS V14.00,2013-03-01 10:46:00,
2013-03-01 05:50:00,16.7,-6.8,30.10,North,9,5.4,9.4,34,0.00,,---,0.00,VWS V14.00,2013-03-01 10:50:00,
2013-03-01 05:51:00,16.7,-6.8,30.10,North,11,5.4,5.4,34,0.00,,---,0.00,VWS V14.00,2013-03-01 10:51:00,
2013-03-01 05:56:00,16.7,-6.8,30.10,NNW,336,8.1,9.4,34,0.00,,---,0.00,VWS V14.00,2013-03-01 10:56:00,
2013-03-01 06:01:00,16.7,-6.8,30.10,North,353,8.1,8.7,34,0.00,,---,0.00,VWS V14.00,2013-03-01 11:01:00,
2013-03-01 06:02:00,16.7,-6.8,30.10,North,357,8.1,9.4,34,0.00,,---,0.00,VWS V14.00,2013-03-01 11:02:00,
2013-03-01 06:06:00,16.7,-6.8,30.10,North,6,8.1,11.4,34,0.00,,---,0.00,VWS V14.00,2013-03-01 11:06:00,
2013-03-01 06:07:00,16.7,-6.8,30.10,North,6,7.4,11.4,34,0.00,,---,0.00,VWS V14.00,2013-03-01 11:07:00,
2013-03-01 06:11:00,16.7,-6.8,30.10,North,6,6.0,9.4,34,0.00,,---,0.00,VWS V14.00,2013-03-01 11:11:00,
2013-03-01 06:12:00,16.7,-6.8,30.10,North,7,7.4,9.4,34,0.00,,---,0.00,VWS V14.00,2013-03-01 11:12:00,
2013-03-01 06:16:00,16.5,-6.9,30.10,NNW,342,9.4,11.4,34,0.00,,---,0.00,VWS V14.00,2013-03-01 11:16:00,
2013-03-01 06:17:00,16.5,-6.9,30.10,NNW,338,9.4,11.4,34,0.00,,---,0.00,VWS V14.00,2013-03-01 11:17:00,
2013-03-01 06:21:00,16.5,-6.9,30.13,North,1,8.7,9.4,34,0.00,,---,0.00,VWS V14.00,2013-03-01 11:21:00,
2013-03-01 06:22:00,16.5,-6.9,30.13,North,357,8.7,8.7,34,0.00,,---,0.00,VWS V14.00,2013-03-01 11:22:00,
2013-03-01 06:26:00,16.5,-6.9,30.13,North,353,8.7,12.4,34,0.00,,---,0.00,VWS V14.00,2013-03-01 11:26:00,
2013-03-01 06:27:00,16.5,-6.9,30.13,NNW,341,9.4,12.4,34,0.00,,---,0.00,VWS V14.00,2013-03-01 11:27:00,
2013-03-01 06:31:00,16.5,-6.9,30.13,North,353,6.0,9.4,34,0.00,,---,0.00,VWS V14.00,2013-03-01 11:31:00,
2013-03-01 06:32:00,16.5,-6.9,30.13,North,3,12.1,12.1,34,0.00,,---,0.00,VWS V14.00,2013-03-01 11:32:00,
2013-03-01 06:36:00,16.5,-6.9,30.13,North,8,5.4,6.0,34,0.00,,---,0.00,VWS V14.00,2013-03-01 11:36:00,
2013-03-01 06:37:00,16.5,-6.9,30.13,NNW,348,8.1,8.1,34,0.00,,---,0.00,VWS V14.00,2013-03-01 11:37:00,
2013-03-01 06:41:00,16.5,-6.9,30.13,North,353,8.1,13.1,34,0.00,,---,0.00,VWS V14.00,2013-03-01 11:41:00,
2013-03-01 06:42:00,16.5,-6.9,30.13,NNE,14,5.4,13.1,34,0.00,,---,0.00,VWS V14.00,2013-03-01 11:42:00,
2013-03-01 06:46:00,16.5,-6.9,30.13,North,353,8.1,9.4,34,0.00,,---,0.00,VWS V14.00,2013-03-01 11:46:00,
2013-03-01 06:47:00,16.5,-6.9,30.13,North,0,7.4,9.4,34,0.00,,---,0.00,VWS V14.00,2013-03-01 11:47:00,
2013-03-01 06:51:00,16.5,-6.9,30.13,North,10,8.1,9.4,34,0.00,,---,0.00,VWS V14.00,2013-03-01 11:51:00,
2013-03-01 06:52:00,16.5,-6.9,30.13,North,5,6.0,6.0,34,0.00,,---,0.00,VWS V14.00,2013-03-01 11:52:00,
2013-03-01 06:57:00,16.5,-6.9,30.13,North,357,7.4,8.7,34,0.00,,---,0.00,VWS V14.00,2013-03-01 11:57:00,
2013-03-01 06:58:00,16.5,-6.9,30.13,North,9,8.1,8.1,34,0.00,,---,0.00,VWS V14.00,2013-03-01 11:58:00,
2013-03-01 07:02:00,16.5,-6.3,30.13,North,353,8.1,9.4,35,0.00,,---,0.00,VWS V14.00,2013-03-01 12:02:00,
2013-03-01 07:03:00,16.5,-6.3,30.13,North,9,8.1,8.1,35,0.00,,---,0.00,VWS V14.00,2013-03-01 12:03:00,
2013-03-01 07:07:00,16.5,-6.3,30.10,North,4,7.4,12.1,35,0.00,,---,0.00,VWS V14.00,2013-03-01 12:07:00,
2013-03-01 07:08:00,16.5,-6.3,30.10,North,0,9.4,9.4,35,0.00,,---,0.00,VWS V14.00,2013-03-01 12:08:00,
2013-03-01 07:12:00,16.5,-6.3,30.10,North,357,8.7,8.7,35,0.00,,---,0.00,VWS V14.00,2013-03-01 12:12:00,
2013-03-01 07:13:00,16.5,-6.3,30.10,North,1,9.4,9.4,35,0.00,,---,0.00,VWS V14.00,2013-03-01 12:13:00,
2013-03-01 07:17:00,16.5,-6.3,30.10,North,0,8.7,8.7,35,0.00,,---,0.00,VWS V14.00,2013-03-01 12:17:00,
2013-03-01 07:18:00,16.5,-6.3,30.10,NNE,18,6.0,8.7,35,0.00,,---,0.00,VWS V14.00,2013-03-01 12:18:00,
2013-03-01 07:22:00,16.5,-6.3,30.13,North,357,8.7,8.7,35,0.00,,---,0.00,VWS V14.00,2013-03-01 12:22:00,
2013-03-01 07:23:00,16.5,-6.3,30.13,North,3,12.1,12.1,35,0.00,,---,0.00,VWS V14.00,2013-03-01 12:23:00,
2013-03-01 07:27:00,16.5,-6.3,30.13,NNW,346,4.7,6.0,35,0.00,,---,0.00,VWS V14.00,2013-03-01 12:27:00,
2013-03-01 07:28:00,16.5,-6.3,30.13,NNW,335,8.1,9.4,35,0.00,,---,0.00,VWS V14.00,2013-03-01 12:28:00,
2013-03-01 07:29:00,16.5,-6.3,30.13,North,357,6.0,9.4,35,0.00,,---,0.00,VWS V14.00,2013-03-01 12:29:00,
2013-03-01 07:32:00,16.5,-6.3,30.13,North,4,12.4,13.8,35,0.00,,---,0.00,VWS V14.00,2013-03-01 12:32:00,
2013-03-01 07:33:00,16.5,-6.3,30.13,North,3,9.4,11.4,35,0.00,,---,0.00,VWS V14.00,2013-03-01 12:33:00,
2013-03-01 07:34:00,16.5,-6.3,30.13,North,350,5.4,11.4,35,0.00,,---,0.00,VWS V14.00,2013-03-01 12:34:00,
2013-03-01 07:37:00,16.5,-6.3,30.13,North,350,9.4,9.4,35,0.00,,---,0.00,VWS V14.00,2013-03-01 12:37:00,
2013-03-01 07:38:00,16.5,-6.3,30.13,North,357,9.4,11.4,35,0.00,,---,0.00,VWS V14.00,2013-03-01 12:38:00,
2013-03-01 07:39:00,16.5,-6.3,30.13,North,2,5.4,11.4,35,0.00,,---,0.00,VWS V14.00,2013-03-01 12:39:00,
2013-03-01 07:42:00,16.5,-6.9,30.13,North,5,7.4,8.1,34,0.00,,---,0.00,VWS V14.00,2013-03-01 12:42:00,
2013-03-01 07:43:00,16.5,-6.9,30.13,NNE,15,6.0,6.0,34,0.00,,---,0.00,VWS V14.00,2013-03-01 12:43:00,
2013-03-01 07:44:00,16.5,-6.9,30.13,North,1,4.7,6.7,34,0.00,,---,0.00,VWS V14.00,2013-03-01 12:44:00,
2013-03-01 07:47:00,16.5,-6.9,30.13,North,357,9.4,9.4,34,0.00,,---,0.00,VWS V14.00,2013-03-01 12:47:00,
2013-03-01 07:48:00,16.5,-6.9,30.13,North,357,7.4,7.4,34,0.00,,---,0.00,VWS V14.00,2013-03-01 12:48:00,
2013-03-01 07:49:00,16.5,-6.9,30.13,North,357,8.7,8.7,34,0.00,,---,0.00,VWS V14.00,2013-03-01 12:49:00,
2013-03-01 07:53:00,16.5,-6.3,30.13,North,3,6.0,6.0,35,0.00,,---,0.00,VWS V14.00,2013-03-01 12:53:00,
2013-03-01 07:54:00,16.5,-6.3,30.13,NNE,26,8.1,9.4,35,0.00,,---,0.00,VWS V14.00,2013-03-01 12:54:00,
2013-03-01 07:58:00,16.5,-6.3,30.13,NNW,338,7.4,7.4,35,0.00,,---,0.00,VWS V14.00,2013-03-01 12:58:00,
2013-03-01 07:59:00,16.5,-6.3,30.13,NNE,16,6.0,9.4,35,0.00,,---,0.00,VWS V14.00,2013-03-01 12:59:00,
2013-03-01 08:03:00,16.5,-6.3,30.13,North,11,4.7,5.4,35,0.00,,---,0.00,VWS V14.00,2013-03-01 13:03:00,
2013-03-01 08:04:00,16.5,-6.3,30.13,North,0,6.0,6.0,35,0.00,,---,0.00,VWS V14.00,2013-03-01 13:04:00,
2013-03-01 08:08:00,16.5,-6.9,30.13,NNW,342,9.4,9.4,34,0.00,,---,0.00,VWS V14.00,2013-03-01 13:08:00,
2013-03-01 08:09:00,16.5,-6.9,30.13,North,2,9.4,9.4,34,0.00,,---,0.00,VWS V14.00,2013-03-01 13:09:00,
2013-03-01 08:13:00,16.5,-6.9,30.13,North,3,7.4,8.7,34,0.00,,---,0.00,VWS V14.00,2013-03-01 13:13:00,
2013-03-01 08:14:00,16.5,-6.9,30.13,North,9,9.4,12.1,34,0.00,,---,0.00,VWS V14.00,2013-03-01 13:14:00,
2013-03-01 08:19:00,16.7,-6.8,30.13,North,0,9.4,12.1,34,0.00,,---,0.00,VWS V14.00,2013-03-01 13:19:00,
2013-03-01 08:24:00,16.7,-6.8,30.13,North,0,10.7,10.7,34,0.00,,---,0.00,VWS V14.00,2013-03-01 13:24:00,
2013-03-01 08:25:00,16.7,-6.8,30.13,North,357,9.4,10.7,34,0.00,,---,0.00,VWS V14.00,2013-03-01 13:25:00,
2013-03-01 08:29:00,16.7,-6.8,30.13,North,353,8.7,8.7,34,0.00,,---,0.00,VWS V14.00,2013-03-01 13:29:00,
2013-03-01 08:30:00,16.7,-6.8,30.13,NNW,348,6.0,8.7,34,0.00,,---,0.00,VWS V14.00,2013-03-01 13:30:00,
2013-03-01 08:34:00,16.7,-6.8,30.13,North,357,4.7,5.4,34,0.00,,---,0.00,VWS V14.00,2013-03-01 13:34:00,
2013-03-01 08:35:00,16.7,-6.8,30.13,North,4,7.4,9.4,34,0.00,,---,0.00,VWS V14.00,2013-03-01 13:35:00,
2013-03-01 08:39:00,16.7,-6.8,30.13,North,353,8.1,8.1,34,0.00,,---,0.00,VWS V14.00,2013-03-01 13:39:00,
2013-03-01 08:40:00,16.7,-6.8,30.13,NNE,31,4.7,8.1,34,0.00,,---,0.00,VWS V14.00,2013-03-01 13:40:00,
2013-03-01 08:44:00,16.7,-6.8,30.13,NNE,13,6.0,6.0,34,0.00,,---,0.00,VWS V14.00,2013-03-01 13:44:00,
2013-03-01 08:45:00,16.7,-6.8,30.13,NNE,24,7.4,7.4,34,0.00,,---,0.00,VWS V14.00,2013-03-01 13:45:00,
2013-03-01 08:49:00,16.9,-6.6,30.13,North,353,7.4,7.4,34,0.00,,---,0.00,VWS V14.00,2013-03-01 13:49:00,
2013-03-01 08:50:00,16.9,-6.0,30.13,North,0,5.4,5.4,35,0.00,,---,0.00,VWS V14.00,2013-03-01 13:50:00,
2013-03-01 08:54:00,16.9,-6.6,30.13,North,357,4.7,6.0,34,0.00,,---,0.00,VWS V14.00,2013-03-01 13:54:00,
2013-03-01 08:55:00,16.9,-6.6,30.13,North,357,7.4,7.4,34,0.00,,---,0.00,VWS V14.00,2013-03-01 13:55:00,
2013-03-01 08:59:00,17.1,-5.9,30.13,North,8,4.7,4.7,35,0.00,,---,0.00,VWS V14.00,2013-03-01 13:59:00,
2013-03-01 09:00:00,17.1,-5.9,30.13,North,6,4.0,4.7,35,0.00,,---,0.00,VWS V14.00,2013-03-01 14:00:00,
2013-03-01 09:01:00,17.1,-5.9,30.13,NNW,348,6.0,6.0,35,0.00,,---,0.00,VWS V14.00,2013-03-01 14:01:00,
2013-03-01 09:04:00,17.1,-5.9,30.13,North,4,4.0,8.1,35,0.00,,---,0.00,VWS V14.00,2013-03-01 14:04:00,
2013-03-01 09:05:00,17.1,-5.9,30.13,North,11,5.4,8.1,35,0.00,,---,0.00,VWS V14.00,2013-03-01 14:05:00,
2013-03-01 09:06:00,17.1,-5.9,30.13,North,7,4.0,5.4,35,0.00,,---,0.00,VWS V14.00,2013-03-01 14:06:00,
2013-03-01 09:09:00,17.2,-5.7,30.13,NNE,12,8.7,8.7,35,0.00,,---,0.00,VWS V14.00,2013-03-01 14:09:00,
2013-03-01 09:10:00,17.4,-5.5,30.13,North,353,6.0,7.4,35,0.00,,---,0.00,VWS V14.00,2013-03-01 14:10:00,
2013-03-01 09:11:00,17.4,-5.5,30.13,North,353,8.1,8.1,35,0.00,,---,0.00,VWS V14.00,2013-03-01 14:11:00,
2013-03-01 09:14:00,17.4,-5.5,30.13,NW,322,6.0,8.1,35,0.00,,---,0.00,VWS V14.00,2013-03-01 14:14:00,
2013-03-01 09:15:00,17.4,-5.5,30.13,North,357,8.1,8.1,35,0.00,,---,0.00,VWS V14.00,2013-03-01 14:15:00,
2013-03-01 09:16:00,17.4,-5.5,30.13,North,353,9.4,9.4,35,0.00,,---,0.00,VWS V14.00,2013-03-01 14:16:00,
2013-03-01 09:19:00,17.4,-6.1,30.13,NNW,345,8.1,9.4,34,0.00,,---,0.00,VWS V14.00,2013-03-01 14:19:00,
2013-03-01 09:20:00,17.4,-5.5,30.13,NNW,340,8.1,8.1,35,0.00,,---,0.00,VWS V14.00,2013-03-01 14:20:00,
2013-03-01 09:21:00,17.4,-5.5,30.13,North,0,12.1,12.1,35,0.00,,---,0.00,VWS V14.00,2013-03-01 14:21:00,
2013-03-01 09:24:00,17.4,-5.5,30.13,North,6,7.4,8.7,35,0.00,,---,0.00,VWS V14.00,2013-03-01 14:24:00,
2013-03-01 09:25:00,17.4,-5.5,30.13,NNE,16,5.4,5.4,35,0.00,,---,0.00,VWS V14.00,2013-03-01 14:25:00,
2013-03-01 09:26:00,17.4,-5.5,30.13,NNW,344,8.1,8.1,35,0.00,,---,0.00,VWS V14.00,2013-03-01 14:26:00,
2013-03-01 09:29:00,17.4,-5.5,30.13,NW,321,8.7,13.1,35,0.00,,---,0.00,VWS V14.00,2013-03-01 14:29:00,
2013-03-01 09:30:00,17.4,-6.1,30.13,North,353,13.1,13.1,34,0.00,,---,0.00,VWS V14.00,2013-03-01 14:30:00,
2013-03-01 09:31:00,17.4,-6.1,30.13,North,4,8.1,13.1,34,0.00,,---,0.00,VWS V14.00,2013-03-01 14:31:00,
2013-03-01 09:35:00,17.4,-6.1,30.13,North,2,7.4,7.4,34,0.00,,---,0.00,VWS V14.00,2013-03-01 14:35:00,
2013-03-01 09:36:00,17.4,-6.1,30.13,North,7,6.0,6.0,34,0.00,,---,0.00,VWS V14.00,2013-03-01 14:36:00,
2013-03-01 09:40:00,17.4,-6.1,30.13,NNW,337,8.1,8.1,34,0.00,,---,0.00,VWS V14.00,2013-03-01 14:40:00,
2013-03-01 09:41:00,17.6,-6.0,30.13,North,353,8.1,8.1,34,0.00,,---,0.00,VWS V14.00,2013-03-01 14:41:00,
2013-03-01 09:45:00,17.6,-6.0,30.13,North,357,6.0,6.0,34,0.00,,---,0.00,VWS V14.00,2013-03-01 14:45:00,
2013-03-01 09:46:00,17.6,-6.0,30.13,NNE,19,7.4,7.4,34,0.00,,---,0.00,VWS V14.00,2013-03-01 14:46:00,
2013-03-01 09:50:00,17.6,-6.0,30.13,North,0,8.1,8.1,34,0.00,,---,0.00,VWS V14.00,2013-03-01 14:50:00,
2013-03-01 09:51:00,17.8,-5.8,30.13,North,357,5.4,5.4,34,0.00,,---,0.00,VWS V14.00,2013-03-01 14:51:00,
2013-03-01 09:55:00,17.8,-6.4,30.13,North,0,9.4,9.4,33,0.00,,---,0.00,VWS V14.00,2013-03-01 14:55:00,
2013-03-01 09:56:00,17.8,-6.4,30.13,North,357,8.1,8.1,33,0.00,,---,0.00,VWS V14.00,2013-03-01 14:56:00,
2013-03-01 10:00:00,17.8,-6.4,30.13,NNW,341,8.7,8.7,33,0.00,,---,0.00,VWS V14.00,2013-03-01 15:00:00,
2013-03-01 10:01:00,17.8,-6.4,30.13,North,9,8.1,8.7,33,0.00,,---,0.00,VWS V14.00,2013-03-01 15:01:00,
2013-03-01 10:02:00,17.8,-6.4,30.13,NNW,346,8.7,8.7,33,0.00,,---,0.00,VWS V14.00,2013-03-01 15:02:00,
2013-03-01 10:06:00,18.0,-6.3,30.13,North,2,7.4,9.4,33,0.00,,---,0.00,VWS V14.00,2013-03-01 15:06:00,
2013-03-01 10:07:00,18.0,-6.3,30.13,North,3,8.1,8.7,33,0.00,,---,0.00,VWS V14.00,2013-03-01 15:07:00,
2013-03-01 10:11:00,18.1,-6.1,30.13,North,5,6.0,9.4,33,0.00,,---,0.00,VWS V14.00,2013-03-01 15:11:00,
2013-03-01 10:12:00,18.1,-6.1,30.13,North,11,6.0,9.4,33,0.00,,---,0.00,VWS V14.00,2013-03-01 15:12:00,
2013-03-01 10:16:00,18.5,-5.8,30.13,NNE,14,4.0,8.1,33,0.00,,---,0.00,VWS V14.00,2013-03-01 15:16:00,
2013-03-01 10:17:00,18.5,-5.8,30.13,North,353,6.0,7.4,33,0.00,,---,0.00,VWS V14.00,2013-03-01 15:17:00,
2013-03-01 10:21:00,18.5,-5.8,30.13,North,349,8.1,8.1,33,0.00,,---,0.00,VWS V14.00,2013-03-01 15:21:00,
2013-03-01 10:22:00,18.5,-5.8,30.13,NNW,340,6.0,6.0,33,0.00,,---,0.00,VWS V14.00,2013-03-01 15:22:00,
2013-03-01 10:26:00,18.5,-5.8,30.13,NNE,19,7.4,7.4,33,0.00,,---,0.00,VWS V14.00,2013-03-01 15:26:00,
2013-03-01 10:27:00,18.5,-5.8,30.13,NNE,16,6.0,6.0,33,0.00,,---,0.00,VWS V14.00,2013-03-01 15:27:00,
2013-03-01 10:31:00,18.5,-5.8,30.13,North,353,6.0,6.0,33,0.00,,---,0.00,VWS V14.00,2013-03-01 15:31:00,
2013-03-01 10:32:00,18.7,-5.6,30.13,North,8,7.4,7.4,33,0.00,,---,0.00,VWS V14.00,2013-03-01 15:32:00,
2013-03-01 10:36:00,18.7,-7.6,30.13,North,6,4.7,4.7,30,0.00,,---,0.00,VWS V14.00,2013-03-01 15:36:00,
2013-03-01 10:37:00,18.7,-7.6,30.13,North,11,4.7,6.0,30,0.00,,---,0.00,VWS V14.00,2013-03-01 15:37:00,
2013-03-01 10:41:00,19.0,-7.3,30.13,North,353,6.0,6.0,30,0.00,,---,0.00,VWS V14.00,2013-03-01 15:41:00,
2013-03-01 10:42:00,19.2,-7.1,30.13,North,6,7.4,8.1,30,0.00,,---,0.00,VWS V14.00,2013-03-01 15:42:00,
2013-03-01 10:43:00,19.0,-7.3,30.13,NNE,29,8.1,8.7,30,0.00,,---,0.00,VWS V14.00,2013-03-01 15:43:00,
2013-03-01 10:46:00,19.2,-7.1,30.13,North,4,6.0,8.7,30,0.00,,---,0.00,VWS V14.00,2013-03-01 15:46:00,
2013-03-01 10:47:00,19.2,-7.1,30.13,NNW,345,9.4,9.4,30,0.00,,---,0.00,VWS V14.00,2013-03-01 15:47:00,
2013-03-01 10:48:00,19.2,-8.5,30.13,North,353,10.1,10.1,28,0.00,,---,0.00,VWS V14.00,2013-03-01 15:48:00,
2013-03-01 10:51:00,19.2,-8.5,30.16,NNE,14,7.4,7.4,28,0.00,,---,0.00,VWS V14.00,2013-03-01 15:51:00,
2013-03-01 10:52:00,19.2,-8.5,30.16,NNW,330,8.7,8.7,28,0.00,,---,0.00,VWS V14.00,2013-03-01 15:52:00,
2013-03-01 10:53:00,19.2,-8.5,30.16,NNE,32,8.7,8.7,28,0.00,,---,0.00,VWS V14.00,2013-03-01 15:53:00,
2013-03-01 10:56:00,19.6,-9.0,30.16,NNE,12,6.7,8.1,27,0.00,,---,0.00,VWS V14.00,2013-03-01 15:56:00,
2013-03-01 10:57:00,19.6,-9.0,30.16,North,357,8.1,8.1,27,0.00,,---,0.00,VWS V14.00,2013-03-01 15:57:00,
2013-03-01 10:58:00,19.6,-9.0,30.16,NNE,18,8.7,12.4,27,0.00,,---,0.00,VWS V14.00,2013-03-01 15:58:00,
2013-03-01 11:01:00,19.6,-9.0,30.16,North,353,8.7,8.7,27,0.00,,---,0.00,VWS V14.00,2013-03-01 16:01:00,
2013-03-01 11:02:00,19.6,-9.0,30.16,North,353,9.4,11.4,27,0.00,,---,0.00,VWS V14.00,2013-03-01 16:02:00,
2013-03-01 11:03:00,19.6,-9.0,30.16,NNE,27,9.4,9.4,27,0.00,,---,0.00,VWS V14.00,2013-03-01 16:03:00,
2013-03-01 11:06:00,19.6,-10.5,30.16,North,6,7.4,9.4,25,0.00,,---,0.00,VWS V14.00,2013-03-01 16:06:00,
2013-03-01 11:07:00,19.6,-10.5,30.16,North,7,6.0,9.4,25,0.00,,---,0.00,VWS V14.00,2013-03-01 16:07:00,
2013-03-01 11:08:00,19.8,-10.4,30.16,NNW,348,9.4,9.4,25,0.00,,---,0.00,VWS V14.00,2013-03-01 16:08:00,
2013-03-01 11:11:00,20.1,-10.1,30.16,North,357,8.7,12.4,25,0.00,,---,0.00,VWS V14.00,2013-03-01 16:11:00,
2013-03-01 11:12:00,20.1,-10.1,30.16,North,353,12.1,12.1,25,0.00,,---,0.00,VWS V14.00,2013-03-01 16:12:00,
2013-03-01 11:13:00,20.3,-9.9,30.16,North,353,9.4,12.1,25,0.00,,---,0.00,VWS V14.00,2013-03-01 16:13:00,
2013-03-01 11:16:00,20.5,-9.7,30.16,North,353,8.7,9.4,25,0.00,,---,0.00,VWS V14.00,2013-03-01 16:16:00,
2013-03-01 11:17:00,20.3,-9.9,30.16,North,350,8.7,8.7,25,0.00,,---,0.00,VWS V14.00,2013-03-01 16:17:00,
2013-03-01 11:18:00,20.3,-9.9,30.16,North,353,8.1,10.1,25,0.00,,---,0.00,VWS V14.00,2013-03-01 16:18:00,
2013-03-01 11:22:00,20.3,-9.9,30.16,North,4,8.1,8.7,25,0.00,,---,0.00,VWS V14.00,2013-03-01 16:22:00,
2013-03-01 11:23:00,20.3,-9.9,30.16,NNW,337,11.4,11.4,25,0.00,,---,0.00,VWS V14.00,2013-03-01 16:23:00,
2013-03-01 11:27:00,20.5,-9.7,30.16,North,357,6.0,7.4,25,0.00,,---,0.00,VWS V14.00,2013-03-01 16:27:00,
2013-03-01 11:28:00,20.5,-9.7,30.16,North,357,8.1,8.7,25,0.00,,---,0.00,VWS V14.00,2013-03-01 16:28:00,
2013-03-01 11:32:00,20.7,-9.6,30.16,NE,39,6.0,8.1,25,0.00,,---,0.00,VWS V14.00,2013-03-01 16:32:00,
2013-03-01 11:33:00,20.7,-9.6,30.16,ENE,62,5.4,8.7,25,0.00,,---,0.00,VWS V14.00,2013-03-01 16:33:00,
2013-03-01 11:37:00,22.6,-7.9,30.16,NNE,13,4.7,8.7,25,0.00,,---,0.00,VWS V14.00,2013-03-01 16:37:00,
2013-03-01 11:38:00,22.6,-7.9,30.16,NNE,25,8.1,8.7,25,0.00,,---,0.00,VWS V14.00,2013-03-01 16:38:00,
2013-03-01 11:39:00,22.6,-7.9,30.16,NNE,15,8.1,8.7,25,0.00,,---,0.00,VWS V14.00,2013-03-01 16:39:00,
2013-03-01 11:42:00,23.2,-8.2,30.16,NNW,343,5.4,6.0,24,0.00,,---,0.00,VWS V14.00,2013-03-01 16:42:00,
2013-03-01 11:43:00,23.0,-7.6,30.16,NNE,18,11.4,11.4,25,0.00,,---,0.00,VWS V14.00,2013-03-01 16:43:00,
2013-03-01 11:44:00,22.8,-7.7,30.16,NE,41,9.4,9.4,25,0.00,,---,0.00,VWS V14.00,2013-03-01 16:44:00,
2013-03-01 11:47:00,23.0,-7.6,30.16,North,5,8.7,8.7,25,0.00,,---,0.00,VWS V14.00,2013-03-01 16:47:00,
2013-03-01 11:48:00,23.7,-7.8,30.16,NNE,26,4.7,5.4,24,0.00,,---,0.00,VWS V14.00,2013-03-01 16:48:00,
2013-03-01 11:49:00,23.7,-7.8,30.16,North,9,9.4,9.4,24,0.00,,---,0.00,VWS V14.00,2013-03-01 16:49:00,
2013-03-01 11:52:00,24.1,-7.5,30.16,NNW,343,11.4,11.4,24,0.00,,---,0.00,VWS V14.00,2013-03-01 16:52:00,
2013-03-01 11:53:00,23.5,-7.9,30.16,NNW,344,10.1,10.1,24,0.00,,---,0.00,VWS V14.00,2013-03-01 16:53:00,
2013-03-01 11:54:00,23.4,-8.1,30.16,NNW,348,8.1,9.4,24,0.00,,---,0.00,VWS V14.00,2013-03-01 16:54:00,
2013-03-01 11:57:00,23.4,-8.1,30.16,North,350,8.1,8.1,24,0.00,,---,0.00,VWS V14.00,2013-03-01 16:57:00,
2013-03-01 11:58:00,23.5,-7.9,30.16,NNE,15,8.7,8.7,24,0.00,,---,0.00,VWS V14.00,2013-03-01 16:58:00,
2013-03-01 11:59:00,23.0,-7.6,30.16,NNE,15,12.1,12.1,25,0.00,,---,0.00,VWS V14.00,2013-03-01 16:59:00,
2013-03-01 12:02:00,23.0,-7.6,30.16,NNE,14,7.4,11.4,25,0.00,,---,0.00,VWS V14.00,2013-03-01 17:02:00,
2013-03-01 12:03:00,23.4,-8.1,30.16,North,357,9.4,9.4,24,0.00,,---,0.00,VWS V14.00,2013-03-01 17:03:00,
2013-03-01 12:04:00,23.9,-7.6,30.16,North,4,6.0,8.7,24,0.00,,---,0.00,VWS V14.00,2013-03-01 17:04:00,
2013-03-01 12:07:00,25.0,-6.7,30.16,North,357,13.1,13.1,24,0.00,,---,0.00,VWS V14.00,2013-03-01 17:07:00,
2013-03-01 12:08:00,24.8,-6.9,30.16,NNW,330,10.7,13.1,24,0.00,,---,0.00,VWS V14.00,2013-03-01 17:08:00,
2013-03-01 12:09:00,24.4,-7.2,30.16,North,5,6.0,8.1,24,0.00,,---,0.00,VWS V14.00,2013-03-01 17:09:00,
2013-03-01 12:12:00,23.4,-8.1,30.16,North,5,13.1,13.1,24,0.00,,---,0.00,VWS V14.00,2013-03-01 17:12:00,
2013-03-01 12:13:00,22.5,-8.0,30.16,North,5,5.4,13.1,25,0.00,,---,0.00,VWS V14.00,2013-03-01 17:13:00,
2013-03-01 12:15:00,22.6,-7.9,30.16,NNW,345,9.4,11.4,25,0.00,,---,0.00,VWS V14.00,2013-03-01 17:15:00,
2013-03-01 12:17:00,22.8,-7.7,30.16,North,10,6.0,9.4,25,0.00,,---,0.00,VWS V14.00,2013-03-01 17:17:00,
2013-03-01 12:18:00,22.8,-7.7,30.16,North,353,8.7,8.7,25,0.00,,---,0.00,VWS V14.00,2013-03-01 17:18:00,
2013-03-01 12:20:00,22.5,-8.0,30.16,NNW,348,13.1,15.1,25,0.00,,---,0.00,VWS V14.00,2013-03-01 17:20:00,
2013-03-01 12:23:00,23.2,-8.2,30.16,North,357,8.7,8.7,24,0.00,,---,0.00,VWS V14.00,2013-03-01 17:23:00,
2013-03-01 12:24:00,23.4,-8.1,30.16,NNW,339,8.7,9.4,24,0.00,,---,0.00,VWS V14.00,2013-03-01 17:24:00,
2013-03-01 12:25:00,23.5,-7.9,30.16,NNE,25,6.0,6.0,24,0.00,,---,0.00,VWS V14.00,2013-03-01 17:25:00,
2013-03-01 12:27:00,23.0,-7.6,30.16,NNE,19,8.1,8.1,25,0.00,,---,0.00,VWS V14.00,2013-03-01 17:27:00,
2013-03-01 12:29:00,22.8,-7.7,30.16,NNE,15,8.1,12.4,25,0.00,,---,0.00,VWS V14.00,2013-03-01 17:29:00,
2013-03-01 12:30:00,22.8,-7.7,30.16,North,357,8.1,8.7,25,0.00,,---,0.00,VWS V14.00,2013-03-01 17:30:00,
2013-03-01 12:33:00,22.1,-8.3,30.16,North,353,8.7,8.7,25,0.00,,---,0.00,VWS V14.00,2013-03-01 17:33:00,
2013-03-01 12:34:00,22.3,-8.2,30.16,North,4,11.4,11.4,25,0.00,,---,0.00,VWS V14.00,2013-03-01 17:34:00,
2013-03-01 12:35:00,22.6,-7.9,30.16,NE,42,8.1,8.1,25,0.00,,---,0.00,VWS V14.00,2013-03-01 17:35:00,
2013-03-01 12:38:00,22.8,-7.7,30.16,North,7,15.1,15.1,25,0.00,,---,0.00,VWS V14.00,2013-03-01 17:38:00,
2013-03-01 12:39:00,22.5,-8.0,30.16,North,353,14.4,15.1,25,0.00,,---,0.00,VWS V14.00,2013-03-01 17:39:00,
2013-03-01 12:40:00,22.3,-8.2,30.16,North,6,8.7,8.7,25,0.00,,---,0.00,VWS V14.00,2013-03-01 17:40:00,
2013-03-01 12:43:00,21.9,-8.5,30.16,NNW,340,8.1,8.7,25,0.00,,---,0.00,VWS V14.00,2013-03-01 17:43:00,
2013-03-01 12:44:00,21.9,-8.5,30.16,North,353,15.8,15.8,25,0.00,,---,0.00,VWS V14.00,2013-03-01 17:44:00,
2013-03-01 12:45:00,21.9,-8.5,30.16,North,8,6.0,8.1,25,0.00,,---,0.00,VWS V14.00,2013-03-01 17:45:00,
2013-03-01 12:48:00,21.9,-8.5,30.16,NW,315,12.4,12.4,25,0.00,,---,0.00,VWS V14.00,2013-03-01 17:48:00,
2013-03-01 12:49:00,21.4,-9.0,30.16,NNW,345,9.4,12.4,25,0.00,,---,0.00,VWS V14.00,2013-03-01 17:49:00,
2013-03-01 12:50:00,21.9,-8.5,30.16,North,353,12.1,15.8,25,0.00,,---,0.00,VWS V14.00,2013-03-01 17:50:00,
2013-03-01 12:53:00,22.5,-8.0,30.16,North,0,12.1,12.1,25,0.00,,---,0.00,VWS V14.00,2013-03-01 17:53:00,
2013-03-01 12:54:00,23.0,-7.6,30.16,North,353,16.4,16.4,25,0.00,,---,0.00,VWS V14.00,2013-03-01 17:54:00,
2013-03-01 12:55:00,22.8,-7.7,30.16,North,0,8.1,12.4,25,0.00,,---,0.00,VWS V14.00,2013-03-01 17:55:00,
2013-03-01 12:58:00,22.6,-7.9,30.16,North,0,8.1,9.4,25,0.00,,---,0.00,VWS V14.00,2013-03-01 17:58:00,
2013-03-01 12:59:00,22.8,-7.7,30.16,NNW,344,8.1,9.4,25,0.00,,---,0.00,VWS V14.00,2013-03-01 17:59:00,
2013-03-01 13:00:00,22.8,-7.7,30.16,NNW,344,8.7,10.7,25,0.00,,---,0.00,VWS V14.00,2013-03-01 18:00:00,
2013-03-01 13:03:00,23.0,-7.6,30.16,NNE,17,9.4,9.4,25,0.00,,---,0.00,VWS V14.00,2013-03-01 18:03:00,
2013-03-01 13:04:00,22.8,-7.7,30.16,North,353,8.1,8.1,25,0.00,,---,0.00,VWS V14.00,2013-03-01 18:04:00,
2013-03-01 13:06:00,22.6,-7.9,30.16,NNE,14,9.4,9.4,25,0.00,,---,0.00,VWS V14.00,2013-03-01 18:06:00,
2013-03-01 13:08:00,22.8,-7.7,30.16,NNE,18,8.1,9.4,25,0.00,,---,0.00,VWS V14.00,2013-03-01 18:08:00,
2013-03-01 13:09:00,22.6,-7.9,30.16,North,8,5.4,8.7,25,0.00,,---,0.00,VWS V14.00,2013-03-01 18:09:00,
2013-03-01 13:11:00,22.3,-8.2,30.16,North,0,9.4,9.4,25,0.00,,---,0.00,VWS V14.00,2013-03-01 18:11:00,
2013-03-01 13:13:00,22.3,-8.2,30.16,North,2,13.1,13.1,25,0.00,,---,0.00,VWS V14.00,2013-03-01 18:13:00,
2013-03-01 13:14:00,22.3,-8.2,30.16,North,10,7.4,8.1,25,0.00,,---,0.00,VWS V14.00,2013-03-01 18:14:00,
2013-03-01 13:16:00,22.5,-8.0,30.16,North,11,8.7,12.1,25,0.00,,---,0.00,VWS V14.00,2013-03-01 18:16:00,
2013-03-01 13:18:00,22.8,-7.7,30.16,North,353,9.4,13.1,25,0.00,,---,0.00,VWS V14.00,2013-03-01 18:18:00,
2013-03-01 13:19:00,22.8,-7.7,30.16,North,353,8.1,9.4,25,0.00,,---,0.00,VWS V14.00,2013-03-01 18:19:00,
2013-03-01 13:20:00,22.8,-7.7,30.16,North,357,9.4,9.4,25,0.00,,---,0.00,VWS V14.00,2013-03-01 18:20:00,
2013-03-01 13:21:00,23.0,-7.6,30.16,NNW,334,11.4,11.4,25,0.00,,---,0.00,VWS V14.00,2013-03-01 18:21:00,
2013-03-01 13:23:00,22.5,-8.0,30.16,NW,324,11.4,11.4,25,0.00,,---,0.00,VWS V14.00,2013-03-01 18:23:00,
2013-03-01 13:24:00,22.6,-7.9,30.16,North,353,12.4,12.4,25,0.00,,---,0.00,VWS V14.00,2013-03-01 18:24:00,
2013-03-01 13:25:00,22.6,-7.9,30.16,North,0,12.1,12.1,25,0.00,,---,0.00,VWS V14.00,2013-03-01 18:25:00,
2013-03-01 13:26:00,21.9,-8.5,30.16,NNW,342,13.1,13.1,25,0.00,,---,0.00,VWS V14.00,2013-03-01 18:26:00,
2013-03-01 13:28:00,22.1,-8.3,30.16,North,353,17.8,17.8,25,0.00,,---,0.00,VWS V14.00,2013-03-01 18:28:00,
2013-03-01 13:29:00,21.9,-8.5,30.16,North,357,13.1,15.8,25,0.00,,---,0.00,VWS V14.00,2013-03-01 18:29:00,
2013-03-01 13:30:00,21.9,-8.5,30.16,North,0,8.7,15.8,25,0.00,,---,0.00,VWS V14.00,2013-03-01 18:30:00,
2013-03-01 13:31:00,21.9,-8.5,30.16,North,357,8.1,8.7,25,0.00,,---,0.00,VWS V14.00,2013-03-01 18:31:00,
2013-03-01 13:34:00,22.3,-8.2,30.16,NNE,17,8.7,9.4,25,0.00,,---,0.00,VWS V14.00,2013-03-01 18:34:00,
2013-03-01 13:35:00,22.3,-8.2,30.16,NNE,17,8.1,8.1,25,0.00,,---,0.00,VWS V14.00,2013-03-01 18:35:00,
2013-03-01 13:36:00,22.6,-7.9,30.16,North,357,4.7,8.7,25,0.00,,---,0.00,VWS V14.00,2013-03-01 18:36:00,
2013-03-01 13:39:00,23.4,-8.1,30.16,North,8,7.4,8.1,24,0.00,,---,0.00,VWS V14.00,2013-03-01 18:39:00,
2013-03-01 13:40:00,23.4,-8.1,30.16,North,353,8.7,8.7,24,0.00,,---,0.00,VWS V14.00,2013-03-01 18:40:00,
2013-03-01 13:41:00,23.4,-8.1,30.16,NW,326,8.7,8.7,24,0.00,,---,0.00,VWS V14.00,2013-03-01 18:41:00,
2013-03-01 13:44:00,23.5,-7.9,30.16,North,6,8.1,8.7,24,0.00,,---,0.00,VWS V14.00,2013-03-01 18:44:00,
2013-03-01 13:45:00,23.4,-8.1,30.16,North,0,6.0,9.4,24,0.00,,---,0.00,VWS V14.00,2013-03-01 18:45:00,
2013-03-01 13:46:00,23.2,-8.2,30.16,North,4,8.7,8.7,24,0.00,,---,0.00,VWS V14.00,2013-03-01 18:46:00,
2013-03-01 13:49:00,22.3,-8.2,30.16,North,3,8.7,12.1,25,0.00,,---,0.00,VWS V14.00,2013-03-01 18:49:00,
2013-03-01 13:50:00,22.5,-8.0,30.16,North,1,12.1,12.1,25,0.00,,---,0.00,VWS V14.00,2013-03-01 18:50:00,
2013-03-01 13:51:00,22.1,-8.3,30.16,North,7,9.4,11.4,25,0.00,,---,0.00,VWS V14.00,2013-03-01 18:51:00,
2013-03-01 13:54:00,21.9,-8.5,30.16,North,353,13.1,13.1,25,0.00,,---,0.00,VWS V14.00,2013-03-01 18:54:00,
2013-03-01 13:55:00,21.7,-8.6,30.16,NNW,340,13.1,13.1,25,0.00,,---,0.00,VWS V14.00,2013-03-01 18:55:00,
2013-03-01 13:57:00,21.9,-8.5,30.16,NNE,19,5.4,10.7,25,0.00,,---,0.00,VWS V14.00,2013-03-01 18:57:00,
2013-03-01 13:59:00,21.9,-8.5,30.16,North,353,12.4,12.4,25,0.00,,---,0.00,VWS V14.00,2013-03-01 18:59:00,
2013-03-01 14:00:00,21.9,-8.5,30.16,North,2,9.4,9.4,25,0.00,,---,0.00,VWS V14.00,2013-03-01 19:00:00,
2013-03-01 14:02:00,22.1,-8.3,30.16,NNW,345,8.1,9.4,25,0.00,,---,0.00,VWS V14.00,2013-03-01 19:02:00,
2013-03-01 14:04:00,22.5,-8.0,30.16,North,11,7.4,7.4,25,0.00,,---,0.00,VWS V14.00,2013-03-01 19:04:00,
2013-03-01 14:05:00,22.5,-8.0,30.16,NNE,15,10.1,10.1,25,0.00,,---,0.00,VWS V14.00,2013-03-01 19:05:00,
2013-03-01 14:07:00,21.9,-8.5,30.16,North,357,12.1,12.1,25,0.00,,---,0.00,VWS V14.00,2013-03-01 19:07:00,
2013-03-01 14:09:00,21.6,-8.8,30.16,North,0,12.4,12.4,25,0.00,,---,0.00,VWS V14.00,2013-03-01 19:09:00,
2013-03-01 14:10:00,21.6,-8.8,30.16,North,1,9.4,11.4,25,0.00,,---,0.00,VWS V14.00,2013-03-01 19:10:00,
2013-03-01 14:12:00,21.6,-8.8,30.16,North,357,10.1,10.1,25,0.00,,---,0.00,VWS V14.00,2013-03-01 19:12:00,
2013-03-01 14:14:00,21.4,-9.0,30.16,North,357,16.4,16.4,25,0.00,,---,0.00,VWS V14.00,2013-03-01 19:14:00,
2013-03-01 14:15:00,21.4,-9.0,30.16,North,0,8.1,8.7,25,0.00,,---,0.00,VWS V14.00,2013-03-01 19:15:00,
2013-03-01 14:17:00,21.4,-9.0,30.16,North,353,13.1,15.1,25,0.00,,---,0.00,VWS V14.00,2013-03-01 19:17:00,
2013-03-01 14:19:00,21.6,-8.8,30.16,North,350,9.4,13.1,25,0.00,,---,0.00,VWS V14.00,2013-03-01 19:19:00,
2013-03-01 14:20:00,21.4,-9.0,30.16,NNE,18,7.4,8.7,25,0.00,,---,0.00,VWS V14.00,2013-03-01 19:20:00,
2013-03-01 14:21:00,21.6,-8.8,30.16,NNW,331,8.7,8.7,25,0.00,,---,0.00,VWS V14.00,2013-03-01 19:21:00,
2013-03-01 14:22:00,21.6,-8.8,30.13,North,357,5.4,5.4,25,0.00,,---,0.00,VWS V14.00,2013-03-01 19:22:00,
2013-03-01 14:24:00,21.2,-9.1,30.13,NNW,335,8.7,9.4,25,0.00,,---,0.00,VWS V14.00,2013-03-01 19:24:00,
2013-03-01 14:25:00,21.0,-9.3,30.13,NNW,342,8.7,13.1,25,0.00,,---,0.00,VWS V14.00,2013-03-01 19:25:00,
2013-03-01 14:26:00,21.0,-9.3,30.13,NW,321,8.1,8.7,25,0.00,,---,0.00,VWS V14.00,2013-03-01 19:26:00,
2013-03-01 14:27:00,20.8,-9.4,30.13,NNW,336,8.7,9.4,25,0.00,,---,0.00,VWS V14.00,2013-03-01 19:27:00,
2013-03-01 14:29:00,21.2,-9.1,30.13,NNW,339,8.1,8.7,25,0.00,,---,0.00,VWS V14.00,2013-03-01 19:29:00,
2013-03-01 14:31:00,21.2,-9.1,30.13,NNW,346,11.4,11.4,25,0.00,,---,0.00,VWS V14.00,2013-03-01 19:31:00,
2013-03-01 14:32:00,21.2,-9.1,30.13,NNW,342,8.7,9.4,25,0.00,,---,0.00,VWS V14.00,2013-03-01 19:32:00,
2013-03-01 14:34:00,21.4,-9.0,30.13,North,353,6.0,9.4,25,0.00,,---,0.00,VWS V14.00,2013-03-01 19:34:00,
2013-03-01 14:36:00,21.7,-8.6,30.13,North,0,8.1,9.4,25,0.00,,---,0.00,VWS V14.00,2013-03-01 19:36:00,
2013-03-01 14:37:00,22.1,-8.3,30.13,NNE,17,5.4,5.4,25,0.00,,---,0.00,VWS V14.00,2013-03-01 19:37:00,
2013-03-01 14:39:00,21.9,-8.5,30.13,NNE,16,9.4,15.1,25,0.00,,---,0.00,VWS V14.00,2013-03-01 19:39:00,
2013-03-01 14:41:00,21.4,-9.0,30.13,NNW,337,9.4,11.4,25,0.00,,---,0.00,VWS V14.00,2013-03-01 19:41:00,
2013-03-01 14:42:00,21.2,-9.1,30.13,NNW,335,11.4,13.1,25,0.00,,---,0.00,VWS V14.00,2013-03-01 19:42:00,
2013-03-01 14:44:00,21.0,-9.3,30.13,North,0,12.4,12.4,25,0.00,,---,0.00,VWS V14.00,2013-03-01 19:44:00,
2013-03-01 14:46:00,21.2,-9.1,30.13,North,357,8.7,11.4,25,0.00,,---,0.00,VWS V14.00,2013-03-01 19:46:00,
2013-03-01 14:47:00,21.4,-9.0,30.13,North,357,9.4,9.4,25,0.00,,---,0.00,VWS V14.00,2013-03-01 19:47:00,
2013-03-01 14:49:00,21.6,-8.8,30.13,North,353,9.4,12.4,25,0.00,,---,0.00,VWS V14.00,2013-03-01 19:49:00,
2013-03-01 14:51:00,21.7,-8.6,30.13,North,0,11.4,11.4,25,0.00,,---,0.00,VWS V14.00,2013-03-01 19:51:00,
2013-03-01 14:52:00,22.1,-8.3,30.13,North,1,7.4,8.7,25,0.00,,---,0.00,VWS V14.00,2013-03-01 19:52:00,
2013-03-01 14:54:00,21.9,-8.5,30.13,NNW,344,9.4,9.4,25,0.00,,---,0.00,VWS V14.00,2013-03-01 19:54:00,
2013-03-01 14:56:00,21.6,-8.8,30.13,NNW,348,13.1,13.1,25,0.00,,---,0.00,VWS V14.00,2013-03-01 19:56:00,
2013-03-01 14:57:00,21.2,-9.1,30.13,North,357,8.1,18.5,25,0.00,,---,0.00,VWS V14.00,2013-03-01 19:57:00,
2013-03-01 15:00:00,21.4,-9.0,30.13,NW,316,15.8,15.8,25,0.00,,---,0.00,VWS V14.00,2013-03-01 20:00:00,
2013-03-01 15:01:00,21.2,-9.1,30.13,NNW,342,11.4,11.4,25,0.00,,---,0.00,VWS V14.00,2013-03-01 20:01:00,
2013-03-01 15:02:00,21.0,-9.3,30.13,NNW,332,8.7,15.1,25,0.00,,---,0.00,VWS V14.00,2013-03-01 20:02:00,
2013-03-01 15:05:00,20.5,-9.7,30.13,North,349,12.1,12.1,25,0.00,,---,0.00,VWS V14.00,2013-03-01 20:05:00,
2013-03-01 15:06:00,20.5,-9.7,30.16,North,357,10.7,10.7,25,0.00,,---,0.00,VWS V14.00,2013-03-01 20:06:00,
2013-03-01 15:07:00,20.8,-9.4,30.16,NW,322,9.4,10.7,25,0.00,,---,0.00,VWS V14.00,2013-03-01 20:07:00,
2013-03-01 15:10:00,21.2,-9.1,30.16,NNW,330,12.1,12.1,25,0.00,,---,0.00,VWS V14.00,2013-03-01 20:10:00,
2013-03-01 15:11:00,21.9,-8.5,30.16,NNW,345,8.1,11.4,25,0.00,,---,0.00,VWS V14.00,2013-03-01 20:11:00,
2013-03-01 15:12:00,22.1,-8.3,30.16,NW,313,8.1,11.4,25,0.00,,---,0.00,VWS V14.00,2013-03-01 20:12:00,
2013-03-01 15:13:00,22.3,-8.2,30.16,North,0,13.1,13.1,25,0.00,,---,0.00,VWS V14.00,2013-03-01 20:13:00,
2013-03-01 15:15:00,21.6,-8.8,30.16,NNE,14,9.4,9.4,25,0.00,,---,0.00,VWS V14.00,2013-03-01 20:15:00,
2013-03-01 15:16:00,21.7,-8.6,30.16,NNE,15,10.7,11.4,25,0.00,,---,0.00,VWS V14.00,2013-03-01 20:16:00,
2013-03-01 15:17:00,21.4,-9.0,30.16,North,353,12.1,12.1,25,0.00,,---,0.00,VWS V14.00,2013-03-01 20:17:00,
2013-03-01 15:18:00,21.2,-9.1,30.16,North,357,8.7,12.1,25,0.00,,---,0.00,VWS V14.00,2013-03-01 20:18:00,
2013-03-01 15:20:00,21.2,-9.1,30.16,North,353,8.1,8.1,25,0.00,,---,0.00,VWS V14.00,2013-03-01 20:20:00,
2013-03-01 15:21:00,21.2,-9.1,30.16,North,357,8.1,8.7,25,0.00,,---,0.00,VWS V14.00,2013-03-01 20:21:00,
2013-03-01 15:22:00,21.2,-9.1,30.16,NNW,341,8.7,11.4,25,0.00,,---,0.00,VWS V14.00,2013-03-01 20:22:00,
2013-03-01 15:23:00,21.7,-8.6,30.16,North,0,8.1,11.4,25,0.00,,---,0.00,VWS V14.00,2013-03-01 20:23:00,
2013-03-01 15:25:00,22.5,-8.0,30.16,North,1,12.4,12.4,25,0.00,,---,0.00,VWS V14.00,2013-03-01 20:25:00,
2013-03-01 15:26:00,22.8,-7.7,30.16,North,353,9.4,12.1,25,0.00,,---,0.00,VWS V14.00,2013-03-01 20:26:00,
2013-03-01 15:27:00,22.8,-7.7,30.16,North,357,12.1,12.1,25,0.00,,---,0.00,VWS V14.00,2013-03-01 20:27:00,
2013-03-01 15:28:00,23.0,-7.6,30.16,NNW,332,13.1,13.1,25,0.00,,---,0.00,VWS V14.00,2013-03-01 20:28:00,
2013-03-01 15:30:00,23.4,-8.1,30.16,NNW,341,5.4,6.0,24,0.00,,---,0.00,VWS V14.00,2013-03-01 20:30:00,
2013-03-01 15:31:00,23.4,-8.1,30.16,North,357,4.7,7.4,24,0.00,,---,0.00,VWS V14.00,2013-03-01 20:31:00,
2013-03-01 15:32:00,23.5,-7.9,30.16,NNW,344,11.4,11.4,24,0.00,,---,0.00,VWS V14.00,2013-03-01 20:32:00,
2013-03-01 15:33:00,23.4,-8.1,30.16,NNW,328,6.0,13.1,24,0.00,,---,0.00,VWS V14.00,2013-03-01 20:33:00,
2013-03-01 15:35:00,22.8,-7.7,30.16,NNW,336,8.1,8.7,25,0.00,,---,0.00,VWS V14.00,2013-03-01 20:35:00,
2013-03-01 15:36:00,23.2,-8.2,30.16,NNE,18,6.0,8.1,24,0.00,,---,0.00,VWS V14.00,2013-03-01 20:36:00,
2013-03-01 15:37:00,23.0,-7.6,30.16,NNW,339,8.1,8.1,25,0.00,,---,0.00,VWS V14.00,2013-03-01 20:37:00,
2013-03-01 15:38:00,23.4,-8.1,30.16,North,3,8.7,11.4,24,0.00,,---,0.00,VWS V14.00,2013-03-01 20:38:00,
2013-03-01 15:40:00,22.1,-8.3,30.16,North,353,8.1,8.7,25,0.00,,---,0.00,VWS V14.00,2013-03-01 20:40:00,
2013-03-01 15:42:00,21.9,-8.5,30.16,NNW,346,7.4,9.4,25,0.00,,---,0.00,VWS V14.00,2013-03-01 20:42:00,
2013-03-01 15:43:00,21.9,-8.5,30.16,North,0,6.0,7.4,25,0.00,,---,0.00,VWS V14.00,2013-03-01 20:43:00,
2013-03-01 15:45:00,21.9,-8.5,30.16,NNW,336,12.1,12.1,25,0.00,,---,0.00,VWS V14.00,2013-03-01 20:45:00,
2013-03-01 15:47:00,21.9,-8.5,30.16,NW,322,13.1,13.1,25,0.00,,---,0.00,VWS V14.00,2013-03-01 20:47:00,
2013-03-01 15:48:00,21.6,-8.8,30.16,North,353,13.1,13.1,25,0.00,,---,0.00,VWS V14.00,2013-03-01 20:48:00,
2013-03-01 15:51:00,21.6,-8.8,30.16,NW,325,13.1,13.1,25,0.00,,---,0.00,VWS V14.00,2013-03-01 20:51:00,
2013-03-01 15:52:00,21.2,-9.1,30.16,NNW,341,12.1,15.1,25,0.00,,---,0.00,VWS V14.00,2013-03-01 20:52:00,
2013-03-01 15:53:00,20.5,-9.7,30.16,NNW,329,11.4,11.4,25,0.00,,---,0.00,VWS V14.00,2013-03-01 20:53:00,
2013-03-01 15:56:00,20.1,-10.1,30.16,North,353,12.4,14.4,25,0.00,,---,0.00,VWS V14.00,2013-03-01 20:56:00,
2013-03-01 15:57:00,20.1,-10.1,30.16,North,6,12.1,13.1,25,0.00,,---,0.00,VWS V14.00,2013-03-01 20:57:00,
2013-03-01 15:58:00,19.6,-10.5,30.16,NNW,329,12.1,13.1,25,0.00,,---,0.00,VWS V14.00,2013-03-01 20:58:00,
2013-03-01 16:01:00,19.4,-10.7,30.16,NW,326,8.7,12.4,25,0.00,,---,0.00,VWS V14.00,2013-03-01 21:01:00,
2013-03-01 16:02:00,19.4,-10.7,30.16,NNW,337,8.7,12.4,25,0.00,,---,0.00,VWS V14.00,2013-03-01 21:02:00,
2013-03-01 16:03:00,19.6,-10.5,30.16,NNW,332,8.7,12.4,25,0.00,,---,0.00,VWS V14.00,2013-03-01 21:03:00,
2013-03-01 16:06:00,20.3,-9.9,30.16,NNW,333,9.4,12.4,25,0.00,,---,0.00,VWS V14.00,2013-03-01 21:06:00,
2013-03-01 16:07:00,20.3,-9.9,30.16,NW,326,8.1,12.4,25,0.00,,---,0.00,VWS V14.00,2013-03-01 21:07:00,
2013-03-01 16:08:00,19.9,-10.2,30.16,NNW,344,8.7,11.4,25,0.00,,---,0.00,VWS V14.00,2013-03-01 21:08:00,
2013-03-01 16:11:00,19.8,-10.4,30.16,North,6,11.4,13.1,25,0.00,,---,0.00,VWS V14.00,2013-03-01 21:11:00,
2013-03-01 16:12:00,19.6,-10.5,30.16,NNW,334,11.4,12.1,25,0.00,,---,0.00,VWS V14.00,2013-03-01 21:12:00,
2013-03-01 16:13:00,19.4,-10.7,30.16,NNW,336,8.1,10.7,25,0.00,,---,0.00,VWS V14.00,2013-03-01 21:13:00,
2013-03-01 16:16:00,19.4,-10.7,30.16,North,357,8.7,8.7,25,0.00,,---,0.00,VWS V14.00,2013-03-01 21:16:00,
2013-03-01 16:17:00,19.4,-10.7,30.16,NNW,338,12.1,13.1,25,0.00,,---,0.00,VWS V14.00,2013-03-01 21:17:00,
2013-03-01 16:18:00,19.2,-10.8,30.16,North,3,11.4,12.1,25,0.00,,---,0.00,VWS V14.00,2013-03-01 21:18:00,
2013-03-01 16:21:00,19.0,-11.0,30.16,NNW,342,13.1,13.1,25,0.00,,---,0.00,VWS V14.00,2013-03-01 21:21:00,
2013-03-01 16:22:00,18.7,-11.3,30.16,NW,312,13.1,13.1,25,0.00,,---,0.00,VWS V14.00,2013-03-01 21:22:00,
2013-03-01 16:23:00,18.5,-11.4,30.16,NNW,343,11.4,11.4,25,0.00,,---,0.00,VWS V14.00,2013-03-01 21:23:00,
2013-03-01 16:26:00,19.0,-11.0,30.16,NNW,341,8.7,8.7,25,0.00,,---,0.00,VWS V14.00,2013-03-01 21:26:00,
2013-03-01 16:27:00,19.0,-11.0,30.16,NW,312,12.4,12.4,25,0.00,,---,0.00,VWS V14.00,2013-03-01 21:27:00,
2013-03-01 16:28:00,19.2,-10.8,30.16,North,353,9.4,11.4,25,0.00,,---,0.00,VWS V14.00,2013-03-01 21:28:00,
2013-03-01 16:31:00,19.2,-10.8,30.16,NNW,330,9.4,9.4,25,0.00,,---,0.00,VWS V14.00,2013-03-01 21:31:00,
2013-03-01 16:32:00,19.2,-10.8,30.16,North,353,11.4,11.4,25,0.00,,---,0.00,VWS V14.00,2013-03-01 21:32:00,
2013-03-01 16:34:00,19.0,-11.0,30.16,NNE,16,9.4,12.1,25,0.00,,---,0.00,VWS V14.00,2013-03-01 21:34:00,
2013-03-01 16:36:00,18.7,-11.3,30.16,North,357,11.4,12.4,25,0.00,,---,0.00,VWS V14.00,2013-03-01 21:36:00,
2013-03-01 16:37:00,18.7,-11.3,30.16,North,0,11.4,11.4,25,0.00,,---,0.00,VWS V14.00,2013-03-01 21:37:00,
2013-03-01 16:38:00,18.7,-11.3,30.16,NNW,338,11.4,13.1,25,0.00,,---,0.00,VWS V14.00,2013-03-01 21:38:00,
2013-03-01 16:39:00,18.5,-11.4,30.16,NNW,344,11.4,13.1,25,0.00,,---,0.00,VWS V14.00,2013-03-01 21:39:00,
2013-03-01 16:41:00,18.5,-11.4,30.16,NNW,338,8.7,11.4,25,0.00,,---,0.00,VWS V14.00,2013-03-01 21:41:00,
2013-03-01 16:42:00,18.7,-11.3,30.16,North,350,13.1,13.1,25,0.00,,---,0.00,VWS V14.00,2013-03-01 21:42:00,
2013-03-01 16:43:00,18.7,-11.3,30.16,NNW,332,9.4,9.4,25,0.00,,---,0.00,VWS V14.00,2013-03-01 21:43:00,
2013-03-01 16:44:00,18.7,-11.3,30.16,North,353,8.7,12.1,25,0.00,,---,0.00,VWS V14.00,2013-03-01 21:44:00,
2013-03-01 16:46:00,18.9,-11.1,30.16,North,2,10.7,11.4,25,0.00,,---,0.00,VWS V14.00,2013-03-01 21:46:00,
2013-03-01 16:47:00,18.9,-11.1,30.16,North,0,8.1,11.4,25,0.00,,---,0.00,VWS V14.00,2013-03-01 21:47:00,
2013-03-01 16:48:00,18.9,-11.1,30.16,North,7,9.4,11.4,25,0.00,,---,0.00,VWS V14.00,2013-03-01 21:48:00,
2013-03-01 16:49:00,18.9,-11.1,30.16,North,357,10.1,11.4,25,0.00,,---,0.00,VWS V14.00,2013-03-01 21:49:00,
2013-03-01 16:52:00,18.9,-11.1,30.16,North,353,12.4,12.4,25,0.00,,---,0.00,VWS V14.00,2013-03-01 21:52:00,
2013-03-01 16:53:00,18.9,-11.1,30.16,North,11,8.7,12.4,25,0.00,,---,0.00,VWS V14.00,2013-03-01 21:53:00,
2013-03-01 16:54:00,18.7,-11.3,30.16,North,357,9.4,9.4,25,0.00,,---,0.00,VWS V14.00,2013-03-01 21:54:00,
2013-03-01 16:57:00,19.2,-10.8,30.16,North,0,8.1,8.7,25,0.00,,---,0.00,VWS V14.00,2013-03-01 21:57:00,
2013-03-01 16:58:00,19.4,-10.7,30.16,North,9,7.4,7.4,25,0.00,,---,0.00,VWS V14.00,2013-03-01 21:58:00,
2013-03-01 16:59:00,19.2,-10.8,30.16,North,10,8.7,9.4,25,0.00,,---,0.00,VWS V14.00,2013-03-01 21:59:00,
2013-03-01 17:02:00,19.2,-10.8,30.16,North,353,11.4,12.1,25,0.00,,---,0.00,VWS V14.00,2013-03-01 22:02:00,
2013-03-01 17:03:00,18.9,-11.1,30.16,NNW,343,15.1,15.1,25,0.00,,---,0.00,VWS V14.00,2013-03-01 22:03:00,
2013-03-01 17:05:00,18.7,-11.3,30.16,NNW,341,11.4,15.1,25,0.00,,---,0.00,VWS V14.00,2013-03-01 22:05:00,
2013-03-01 17:08:00,18.5,-11.4,30.16,North,0,13.8,13.8,25,0.00,,---,0.00,VWS V14.00,2013-03-01 22:08:00,
2013-03-01 17:10:00,18.3,-11.6,30.16,North,0,12.4,13.1,25,0.00,,---,0.00,VWS V14.00,2013-03-01 22:10:00,
2013-03-01 17:13:00,18.3,-11.6,30.16,North,353,9.4,9.4,25,0.00,,---,0.00,VWS V14.00,2013-03-01 22:13:00,
2013-03-01 17:15:00,18.1,-11.8,30.16,North,10,8.7,13.1,25,0.00,,---,0.00,VWS V14.00,2013-03-01 22:15:00,
2013-03-01 17:18:00,18.0,-11.9,30.16,NNE,15,6.7,12.1,25,0.00,,---,0.00,VWS V14.00,2013-03-01 22:18:00,
2013-03-01 17:20:00,17.6,-11.4,30.16,North,353,12.4,12.4,26,0.00,,---,0.00,VWS V14.00,2013-03-01 22:20:00,
2013-03-01 17:23:00,17.2,-11.8,30.16,NNE,28,8.1,8.1,26,0.00,,---,0.00,VWS V14.00,2013-03-01 22:23:00,
2013-03-01 17:25:00,17.1,-11.9,30.16,North,357,9.4,11.4,26,0.00,,---,0.00,VWS V14.00,2013-03-01 22:25:00,
2013-03-01 17:28:00,16.9,-12.1,30.16,NNW,333,12.1,12.1,26,0.00,,---,0.00,VWS V14.00,2013-03-01 22:28:00,
2013-03-01 17:30:00,16.9,-12.1,30.16,North,0,8.7,12.1,26,0.00,,---,0.00,VWS V14.00,2013-03-01 22:30:00,
2013-03-01 17:33:00,16.7,-12.2,30.16,North,349,11.4,12.1,26,0.00,,---,0.00,VWS V14.00,2013-03-01 22:33:00,
2013-03-01 17:34:00,16.7,-12.2,30.16,North,0,9.4,12.1,26,0.00,,---,0.00,VWS V14.00,2013-03-01 22:34:00,
2013-03-01 17:35:00,16.7,-12.2,30.16,North,0,11.4,11.4,26,0.00,,---,0.00,VWS V14.00,2013-03-01 22:35:00,
2013-03-01 17:38:00,16.5,-12.4,30.16,North,2,9.4,12.1,26,0.00,,---,0.00,VWS V14.00,2013-03-01 22:38:00,
2013-03-01 17:39:00,16.5,-12.4,30.16,North,9,8.7,12.1,26,0.00,,---,0.00,VWS V14.00,2013-03-01 22:39:00,
2013-03-01 17:40:00,16.5,-12.4,30.16,NNW,338,8.1,10.7,26,0.00,,---,0.00,VWS V14.00,2013-03-01 22:40:00,
2013-03-01 17:43:00,16.3,-12.5,30.16,NNW,337,12.4,15.8,26,0.00,,---,0.00,VWS V14.00,2013-03-01 22:43:00,
2013-03-01 17:44:00,16.3,-12.5,30.16,NW,317,12.1,15.8,26,0.00,,---,0.00,VWS V14.00,2013-03-01 22:44:00,
2013-03-01 17:45:00,16.3,-12.5,30.16,North,357,12.1,12.1,26,0.00,,---,0.00,VWS V14.00,2013-03-01 22:45:00,
2013-03-01 17:48:00,16.3,-12.5,30.16,NNW,342,12.4,12.4,26,0.00,,---,0.00,VWS V14.00,2013-03-01 22:48:00,
2013-03-01 17:49:00,16.3,-12.5,30.16,NNW,339,15.1,15.1,26,0.00,,---,0.00,VWS V14.00,2013-03-01 22:49:00,
2013-03-01 17:50:00,16.2,-12.7,30.16,North,349,16.4,16.4,26,0.00,,---,0.00,VWS V14.00,2013-03-01 22:50:00,
2013-03-01 17:54:00,16.2,-12.7,30.16,North,353,12.4,16.4,26,0.00,,---,0.00,VWS V14.00,2013-03-01 22:54:00,
2013-03-01 17:55:00,16.2,-12.7,30.16,North,353,11.4,15.8,26,0.00,,---,0.00,VWS V14.00,2013-03-01 22:55:00,
2013-03-01 17:59:00,16.3,-12.5,30.16,North,353,11.4,12.1,26,0.00,,---,0.00,VWS V14.00,2013-03-01 22:59:00,
2013-03-01 18:00:00,16.3,-12.5,30.16,North,357,12.1,12.1,26,0.00,,---,0.00,VWS V14.00,2013-03-01 23:00:00,
2013-03-01 18:04:00,16.3,-12.5,30.16,NNW,334,12.4,12.4,26,0.00,,---,0.00,VWS V14.00,2013-03-01 23:04:00,
2013-03-01 18:05:00,16.3,-12.5,30.16,NW,318,9.4,15.1,26,0.00,,---,0.00,VWS V14.00,2013-03-01 23:05:00,
2013-03-01 18:09:00,16.2,-12.7,30.16,North,357,12.4,12.4,26,0.00,,---,0.00,VWS V14.00,2013-03-01 23:09:00,
2013-03-01 18:10:00,16.2,-12.7,30.16,North,353,9.4,12.1,26,0.00,,---,0.00,VWS V14.00,2013-03-01 23:10:00,
2013-03-01 18:14:00,16.0,-12.8,30.16,North,5,9.4,13.1,26,0.00,,---,0.00,VWS V14.00,2013-03-01 23:14:00,
2013-03-01 18:15:00,16.0,-12.8,30.16,NNW,340,9.4,9.4,26,0.00,,---,0.00,VWS V14.00,2013-03-01 23:15:00,
2013-03-01 18:19:00,15.8,-13.0,30.16,North,0,10.1,11.4,26,0.00,,---,0.00,VWS V14.00,2013-03-01 23:19:00,
2013-03-01 18:20:00,15.8,-13.0,30.16,North,0,11.4,11.4,26,0.00,,---,0.00,VWS V14.00,2013-03-01 23:20:00,
2013-03-01 18:24:00,15.8,-13.0,30.16,NNW,343,12.4,12.4,26,0.00,,---,0.00,VWS V14.00,2013-03-01 23:24:00,
2013-03-01 18:25:00,15.6,-13.1,30.16,NNW,343,12.4,12.4,26,0.00,,---,0.00,VWS V14.00,2013-03-01 23:25:00,
2013-03-01 18:29:00,15.6,-13.1,30.16,NNW,337,12.4,12.4,26,0.00,,---,0.00,VWS V14.00,2013-03-01 23:29:00,
2013-03-01 18:30:00,15.6,-13.1,30.16,NNW,345,8.7,12.4,26,0.00,,---,0.00,VWS V14.00,2013-03-01 23:30:00,
2013-03-01 18:34:00,15.3,-13.5,30.16,North,357,8.1,15.1,26,0.00,,---,0.00,VWS V14.00,2013-03-01 23:34:00,
2013-03-01 18:35:00,15.3,-13.5,30.16,North,357,8.1,15.1,26,0.00,,---,0.00,VWS V14.00,2013-03-01 23:35:00,
2013-03-01 18:36:00,15.3,-13.5,30.19,North,0,11.4,11.4,26,0.00,,---,0.00,VWS V14.00,2013-03-01 23:36:00,
2013-03-01 18:40:00,15.3,-13.5,30.19,NNW,342,8.7,13.1,26,0.00,,---,0.00,VWS V14.00,2013-03-01 23:40:00,
2013-03-01 18:41:00,15.1,-13.6,30.19,North,0,4.7,10.7,26,0.00,,---,0.00,VWS V14.00,2013-03-01 23:41:00,
2013-03-01 18:45:00,15.3,-13.5,30.19,NNW,330,13.1,15.1,26,0.00,,---,0.00,VWS V14.00,2013-03-01 23:45:00,
2013-03-01 18:46:00,15.3,-13.5,30.19,NNW,338,11.4,11.4,26,0.00,,---,0.00,VWS V14.00,2013-03-01 23:46:00,
2013-03-01 18:50:00,15.1,-13.6,30.19,North,357,8.1,11.4,26,0.00,,---,0.00,VWS V14.00,2013-03-01 23:50:00,
2013-03-01 18:51:00,15.1,-13.6,30.19,North,357,11.4,11.4,26,0.00,,---,0.00,VWS V14.00,2013-03-01 23:51:00,
2013-03-01 18:55:00,14.9,-13.8,30.19,NNW,338,10.1,11.4,26,0.00,,---,0.00,VWS V14.00,2013-03-01 23:55:00,
2013-03-01 18:56:00,14.9,-13.8,30.19,North,353,9.4,9.4,26,0.00,,---,0.00,VWS V14.00,2013-03-01 23:56:00,
2013-03-01 19:00:00,14.7,-13.9,30.19,North,349,8.1,13.1,26,0.00,,---,0.00,VWS V14.00,2013-03-02 00:00:00,
2013-03-01 19:01:00,14.7,-13.9,30.19,North,353,12.1,12.1,26,0.00,,---,0.00,VWS V14.00,2013-03-02 00:01:00,
2013-03-01 19:05:00,14.7,-13.9,30.19,North,357,12.4,12.4,26,0.00,,---,0.00,VWS V14.00,2013-03-02 00:05:00,
2013-03-01 19:06:00,14.5,-14.1,30.19,North,357,8.7,12.4,26,0.00,,---,0.00,VWS V14.00,2013-03-02 00:06:00,
2013-03-01 19:10:00,14.7,-13.9,30.19,North,0,8.7,8.7,26,0.00,,---,0.00,VWS V14.00,2013-03-02 00:10:00,
2013-03-01 19:11:00,14.5,-14.1,30.19,NNW,346,10.1,10.1,26,0.00,,---,0.00,VWS V14.00,2013-03-02 00:11:00,
2013-03-01 19:12:00,14.5,-14.1,30.19,North,2,5.4,9.4,26,0.00,,---,0.00,VWS V14.00,2013-03-02 00:12:00,
2013-03-01 19:15:00,14.5,-14.1,30.19,North,353,9.4,9.4,26,0.00,,---,0.00,VWS V14.00,2013-03-02 00:15:00,
2013-03-01 19:16:00,14.5,-14.1,30.19,North,4,8.7,12.4,26,0.00,,---,0.00,VWS V14.00,2013-03-02 00:16:00,
2013-03-01 19:17:00,14.5,-14.1,30.19,NNW,341,8.1,9.4,26,0.00,,---,0.00,VWS V14.00,2013-03-02 00:17:00,
2013-03-01 19:20:00,14.5,-14.1,30.19,North,0,9.4,9.4,26,0.00,,---,0.00,VWS V14.00,2013-03-02 00:20:00,
2013-03-01 19:21:00,14.5,-14.1,30.19,North,6,9.4,9.4,26,0.00,,---,0.00,VWS V14.00,2013-03-02 00:21:00,
2013-03-01 19:22:00,14.5,-14.1,30.19,North,353,7.4,9.4,26,0.00,,---,0.00,VWS V14.00,2013-03-02 00:22:00,
2013-03-01 19:25:00,14.4,-12.1,30.19,North,11,9.4,10.7,29,0.00,,---,0.00,VWS V14.00,2013-03-02 00:25:00,
2013-03-01 19:26:00,14.4,-12.1,30.19,North,353,9.4,12.1,29,0.00,,---,0.00,VWS V14.00,2013-03-02 00:26:00,
2013-03-01 19:27:00,14.4,-12.1,30.19,North,353,11.4,11.4,29,0.00,,---,0.00,VWS V14.00,2013-03-02 00:27:00,
2013-03-01 19:30:00,14.4,-12.1,30.19,North,2,8.7,9.4,29,0.00,,---,0.00,VWS V14.00,2013-03-02 00:30:00,
2013-03-01 19:31:00,14.4,-12.1,30.19,North,353,9.4,12.4,29,0.00,,---,0.00,VWS V14.00,2013-03-02 00:31:00,
2013-03-01 19:32:00,14.4,-12.1,30.19,North,0,8.7,9.4,29,0.00,,---,0.00,VWS V14.00,2013-03-02 00:32:00,
2013-03-01 19:35:00,14.4,-12.1,30.19,North,0,9.4,11.4,29,0.00,,---,0.00,VWS V14.00,2013-03-02 00:35:00,
2013-03-01 19:36:00,14.4,-12.1,30.16,North,5,8.1,9.4,29,0.00,,---,0.00,VWS V14.00,2013-03-02 00:36:00,
2013-03-01 19:37:00,14.2,-12.2,30.16,North,357,12.1,12.1,29,0.00,,---,0.00,VWS V14.00,2013-03-02 00:37:00,
2013-03-01 19:40:00,14.4,-12.1,30.16,North,357,8.7,9.4,29,0.00,,---,0.00,VWS V14.00,2013-03-02 00:40:00,
2013-03-01 19:41:00,14.4,-12.1,30.16,North,349,10.7,11.4,29,0.00,,---,0.00,VWS V14.00,2013-03-02 00:41:00,
2013-03-01 19:42:00,14.4,-12.1,30.16,North,7,8.1,8.7,29,0.00,,---,0.00,VWS V14.00,2013-03-02 00:42:00,
2013-03-01 19:45:00,14.4,-14.2,30.16,North,357,8.7,12.1,26,0.00,,---,0.00,VWS V14.00,2013-03-02 00:45:00,
2013-03-01 19:46:00,14.4,-14.2,30.16,North,357,8.1,9.4,26,0.00,,---,0.00,VWS V14.00,2013-03-02 00:46:00,
2013-03-01 19:47:00,14.4,-14.2,30.16,NNW,337,11.4,13.1,26,0.00,,---,0.00,VWS V14.00,2013-03-02 00:47:00,
2013-03-01 19:50:00,14.4,-14.2,30.16,North,0,6.0,7.4,26,0.00,,---,0.00,VWS V14.00,2013-03-02 00:50:00,
2013-03-01 19:51:00,14.4,-14.2,30.16,North,3,6.0,6.0,26,0.00,,---,0.00,VWS V14.00,2013-03-02 00:51:00,
2013-03-01 19:52:00,14.2,-14.4,30.16,North,0,8.1,8.7,26,0.00,,---,0.00,VWS V14.00,2013-03-02 00:52:00,
2013-03-01 19:55:00,14.2,-14.4,30.16,North,0,12.1,12.4,26,0.00,,---,0.00,VWS V14.00,2013-03-02 00:55:00,
2013-03-01 19:56:00,14.2,-14.4,30.16,North,353,12.1,12.4,26,0.00,,---,0.00,VWS V14.00,2013-03-02 00:56:00,
2013-03-01 19:57:00,14.2,-14.4,30.16,North,0,8.7,8.7,26,0.00,,---,0.00,VWS V14.00,2013-03-02 00:57:00,
2013-03-01 20:00:00,14.2,-14.4,30.16,North,353,9.4,9.4,26,0.00,,---,0.00,VWS V14.00,2013-03-02 01:00:00,
2013-03-01 20:01:00,14.2,-14.4,30.16,NNW,345,8.1,9.4,26,0.00,,---,0.00,VWS V14.00,2013-03-02 01:01:00,
2013-03-01 20:02:00,14.2,-14.4,30.16,North,0,8.1,9.4,26,0.00,,---,0.00,VWS V14.00,2013-03-02 01:02:00,
2013-03-01 20:06:00,13.8,-14.0,30.16,North,353,9.4,11.4,27,0.00,,---,0.00,VWS V14.00,2013-03-02 01:06:00,
2013-03-01 20:07:00,14.0,-13.8,30.16,North,353,8.7,9.4,27,0.00,,---,0.00,VWS V14.00,2013-03-02 01:07:00,
2013-03-01 20:11:00,14.0,-13.8,30.16,North,357,5.4,9.4,27,0.00,,---,0.00,VWS V14.00,2013-03-02 01:11:00,
2013-03-01 20:13:00,14.0,-13.8,30.16,North,357,8.1,9.4,27,0.00,,---,0.00,VWS V14.00,2013-03-02 01:13:00,
2013-03-01 20:16:00,13.8,-14.0,30.16,North,0,8.7,8.7,27,0.00,,---,0.00,VWS V14.00,2013-03-02 01:16:00,
2013-03-01 20:18:00,14.0,-13.8,30.16,North,5,9.4,9.4,27,0.00,,---,0.00,VWS V14.00,2013-03-02 01:18:00,
2013-03-01 20:21:00,14.0,-13.8,30.16,North,353,8.7,8.7,27,0.00,,---,0.00,VWS V14.00,2013-03-02 01:21:00,
2013-03-01 20:23:00,14.0,-13.8,30.16,NNW,344,8.7,8.7,27,0.00,,---,0.00,VWS V14.00,2013-03-02 01:23:00,
2013-03-01 20:26:00,14.2,-14.4,30.16,North,353,9.4,9.4,26,0.00,,---,0.00,VWS V14.00,2013-03-02 01:26:00,
2013-03-01 20:28:00,14.2,-14.4,30.16,North,357,8.7,8.7,26,0.00,,---,0.00,VWS V14.00,2013-03-02 01:28:00,
2013-03-01 20:31:00,14.0,-13.8,30.16,North,0,8.7,8.7,27,0.00,,---,0.00,VWS V14.00,2013-03-02 01:31:00,
2013-03-01 20:33:00,14.0,-13.8,30.16,North,357,8.1,8.1,27,0.00,,---,0.00,VWS V14.00,2013-03-02 01:33:00,
2013-03-01 20:36:00,14.0,-13.8,30.16,NNW,345,7.4,8.7,27,0.00,,---,0.00,VWS V14.00,2013-03-02 01:36:00,
2013-03-01 20:38:00,13.8,-14.0,30.16,NNW,346,9.4,9.4,27,0.00,,---,0.00,VWS V14.00,2013-03-02 01:38:00,
2013-03-01 20:41:00,13.8,-14.0,30.16,North,350,9.4,10.7,27,0.00,,---,0.00,VWS V14.00,2013-03-02 01:41:00,
2013-03-01 20:42:00,13.8,-14.0,30.16,North,3,8.7,8.7,27,0.00,,---,0.00,VWS V14.00,2013-03-02 01:42:00,
2013-03-01 20:43:00,13.8,-14.0,30.16,NNW,346,8.1,8.1,27,0.00,,---,0.00,VWS V14.00,2013-03-02 01:43:00,
2013-03-01 20:46:00,13.8,-14.0,30.16,NNW,344,7.4,8.7,27,0.00,,---,0.00,VWS V14.00,2013-03-02 01:46:00,
2013-03-01 20:47:00,13.8,-14.0,30.16,NNW,343,8.1,8.1,27,0.00,,---,0.00,VWS V14.00,2013-03-02 01:47:00,
2013-03-01 20:48:00,13.8,-14.0,30.16,North,357,8.7,8.7,27,0.00,,---,0.00,VWS V14.00,2013-03-02 01:48:00,
2013-03-01 20:51:00,13.8,-14.0,30.16,North,353,9.4,9.4,27,0.00,,---,0.00,VWS V14.00,2013-03-02 01:51:00,
2013-03-01 20:52:00,13.8,-14.0,30.16,North,353,8.7,8.7,27,0.00,,---,0.00,VWS V14.00,2013-03-02 01:52:00,
2013-03-01 20:53:00,13.8,-14.0,30.16,North,350,8.7,9.4,27,0.00,,---,0.00,VWS V14.00,2013-03-02 01:53:00,
2013-03-01 20:56:00,13.8,-14.0,30.16,NNW,344,8.1,8.7,27,0.00,,---,0.00,VWS V14.00,2013-03-02 01:56:00,
2013-03-01 20:57:00,13.8,-14.0,30.16,North,353,8.7,8.7,27,0.00,,---,0.00,VWS V14.00,2013-03-02 01:57:00,
2013-03-01 20:58:00,13.8,-14.0,30.16,NNW,345,6.0,8.7,27,0.00,,---,0.00,VWS V14.00,2013-03-02 01:58:00,
2013-03-01 21:01:00,13.8,-14.0,30.16,NNW,348,7.4,9.4,27,0.00,,---,0.00,VWS V14.00,2013-03-02 02:01:00,
2013-03-01 21:02:00,13.8,-14.0,30.16,NNW,348,7.4,9.4,27,0.00,,---,0.00,VWS V14.00,2013-03-02 02:02:00,
2013-03-01 21:03:00,13.8,-14.0,30.16,North,353,9.4,10.1,27,0.00,,---,0.00,VWS V14.00,2013-03-02 02:03:00,
2013-03-01 21:07:00,14.2,-14.4,30.16,NNW,345,8.7,9.4,26,0.00,,---,0.00,VWS V14.00,2013-03-02 02:07:00,
2013-03-01 21:08:00,14.2,-14.4,30.16,NNW,343,8.7,12.1,26,0.00,,---,0.00,VWS V14.00,2013-03-02 02:08:00,
2013-03-01 21:12:00,14.2,-14.4,30.16,North,353,8.7,8.7,26,0.00,,---,0.00,VWS V14.00,2013-03-02 02:12:00,
2013-03-01 21:14:00,14.2,-14.4,30.16,NNW,337,8.7,8.7,26,0.00,,---,0.00,VWS V14.00,2013-03-02 02:14:00,
2013-03-01 21:17:00,14.0,-13.8,30.16,NNW,345,6.7,8.1,27,0.00,,---,0.00,VWS V14.00,2013-03-02 02:17:00,
2013-03-01 21:19:00,14.0,-13.8,30.16,NW,322,9.4,10.1,27,0.00,,---,0.00,VWS V14.00,2013-03-02 02:19:00,
2013-03-01 21:22:00,13.8,-14.0,30.16,North,349,8.1,8.1,27,0.00,,---,0.00,VWS V14.00,2013-03-02 02:22:00,
2013-03-01 21:24:00,13.8,-14.0,30.16,NNW,348,6.7,7.4,27,0.00,,---,0.00,VWS V14.00,2013-03-02 02:24:00,
2013-03-01 21:27:00,13.8,-14.0,30.16,NNW,348,8.7,8.7,27,0.00,,---,0.00,VWS V14.00,2013-03-02 02:27:00,
2013-03-01 21:28:00,13.8,-14.0,30.16,North,0,8.7,8.7,27,0.00,,---,0.00,VWS V14.00,2013-03-02 02:28:00,
2013-03-01 21:29:00,13.8,-14.0,30.16,NNW,330,8.7,8.7,27,0.00,,---,0.00,VWS V14.00,2013-03-02 02:29:00,
2013-03-01 21:32:00,13.8,-14.0,30.16,NNW,342,6.0,6.0,27,0.00,,---,0.00,VWS V14.00,2013-03-02 02:32:00,
2013-03-01 21:33:00,13.8,-14.0,30.16,North,0,8.1,8.1,27,0.00,,---,0.00,VWS V14.00,2013-03-02 02:33:00,
2013-03-01 21:34:00,13.8,-14.0,30.16,NNW,334,9.4,9.4,27,0.00,,---,0.00,VWS V14.00,2013-03-02 02:34:00,
2013-03-01 21:37:00,13.8,-14.0,30.16,NNW,333,8.1,8.1,27,0.00,,---,0.00,VWS V14.00,2013-03-02 02:37:00,
2013-03-01 21:38:00,13.6,-14.1,30.16,NNW,345,7.4,7.4,27,0.00,,---,0.00,VWS V14.00,2013-03-02 02:38:00,
2013-03-01 21:39:00,13.6,-14.1,30.16,North,353,8.1,8.7,27,0.00,,---,0.00,VWS V14.00,2013-03-02 02:39:00,
2013-03-01 21:42:00,13.6,-14.1,30.16,NNW,341,7.4,7.4,27,0.00,,---,0.00,VWS V14.00,2013-03-02 02:42:00,
2013-03-01 21:43:00,13.6,-14.1,30.16,NNW,339,9.4,9.4,27,0.00,,---,0.00,VWS V14.00,2013-03-02 02:43:00,
2013-03-01 21:44:00,13.6,-14.1,30.16,North,349,6.0,8.1,27,0.00,,---,0.00,VWS V14.00,2013-03-02 02:44:00,
2013-03-01 21:47:00,13.6,-14.1,30.16,NNW,334,8.1,8.1,27,0.00,,---,0.00,VWS V14.00,2013-03-02 02:47:00,
2013-03-01 21:48:00,13.6,-14.1,30.16,NNW,341,6.7,8.1,27,0.00,,---,0.00,VWS V14.00,2013-03-02 02:48:00,
2013-03-01 21:49:00,13.6,-14.1,30.16,NNW,337,8.1,8.1,27,0.00,,---,0.00,VWS V14.00,2013-03-02 02:49:00,
2013-03-01 21:52:00,13.8,-14.0,30.16,NNW,342,8.1,9.4,27,0.00,,---,0.00,VWS V14.00,2013-03-02 02:52:00,
2013-03-01 21:53:00,13.8,-14.0,30.16,NNW,342,8.1,9.4,27,0.00,,---,0.00,VWS V14.00,2013-03-02 02:53:00,
2013-03-01 21:54:00,13.6,-14.1,30.16,NNW,333,8.1,8.1,27,0.00,,---,0.00,VWS V14.00,2013-03-02 02:54:00,
2013-03-01 21:57:00,13.6,-14.1,30.16,NNW,341,6.7,8.1,27,0.00,,---,0.00,VWS V14.00,2013-03-02 02:57:00,
2013-03-01 21:58:00,13.6,-14.1,30.16,NNW,331,8.7,8.7,27,0.00,,---,0.00,VWS V14.00,2013-03-02 02:58:00,
2013-03-01 21:59:00,13.6,-14.1,30.16,NNW,333,8.7,8.7,27,0.00,,---,0.00,VWS V14.00,2013-03-02 02:59:00,
2013-03-01 22:03:00,13.6,-14.1,30.16,NNW,334,8.1,8.1,27,0.00,,---,0.00,VWS V14.00,2013-03-02 03:03:00,
2013-03-01 22:04:00,13.6,-14.1,30.16,NW,326,9.4,9.4,27,0.00,,---,0.00,VWS V14.00,2013-03-02 03:04:00,
2013-03-01 22:08:00,13.8,-14.0,30.16,NNW,342,8.1,8.1,27,0.00,,---,0.00,VWS V14.00,2013-03-02 03:08:00,
2013-03-01 22:09:00,13.8,-14.0,30.16,NNW,340,8.1,8.1,27,0.00,,---,0.00,VWS V14.00,2013-03-02 03:09:00,
2013-03-01 22:13:00,14.2,-14.4,30.16,NNW,348,9.4,9.4,26,0.00,,---,0.00,VWS V14.00,2013-03-02 03:13:00,
2013-03-01 22:14:00,14.2,-14.4,30.16,NNW,343,8.1,8.1,26,0.00,,---,0.00,VWS V14.00,2013-03-02 03:14:00,
2013-03-01 22:18:00,14.5,-14.1,30.16,NNW,333,8.1,8.1,26,0.00,,---,0.00,VWS V14.00,2013-03-02 03:18:00,
2013-03-01 22:19:00,14.5,-14.1,30.16,NNW,336,8.1,8.1,26,0.00,,---,0.00,VWS V14.00,2013-03-02 03:19:00,
2013-03-01 22:23:00,14.5,-14.1,30.13,NNW,341,8.7,9.4,26,0.00,,---,0.00,VWS V14.00,2013-03-02 03:23:00,
2013-03-01 22:24:00,14.5,-14.1,30.13,North,349,9.4,9.4,26,0.00,,---,0.00,VWS V14.00,2013-03-02 03:24:00,
2013-03-01 22:28:00,14.9,-13.8,30.13,NNW,329,8.7,8.7,26,0.00,,---,0.00,VWS V14.00,2013-03-02 03:28:00,
2013-03-01 22:29:00,14.9,-13.8,30.13,NNW,337,8.1,8.7,26,0.00,,---,0.00,VWS V14.00,2013-03-02 03:29:00,
2013-03-01 22:33:00,14.9,-13.8,30.13,North,353,9.4,11.4,26,0.00,,---,0.00,VWS V14.00,2013-03-02 03:33:00,
2013-03-01 22:34:00,15.1,-13.6,30.13,NNW,333,8.7,11.4,26,0.00,,---,0.00,VWS V14.00,2013-03-02 03:34:00,
2013-03-01 22:38:00,15.1,-13.6,30.13,NNW,338,9.4,9.4,26,0.00,,---,0.00,VWS V14.00,2013-03-02 03:38:00,
2013-03-01 22:39:00,15.1,-13.6,30.13,North,349,8.1,8.7,26,0.00,,---,0.00,VWS V14.00,2013-03-02 03:39:00,
2013-03-01 22:43:00,15.1,-13.6,30.13,North,353,8.7,8.7,26,0.00,,---,0.00,VWS V14.00,2013-03-02 03:43:00,
2013-03-01 22:44:00,15.3,-13.5,30.13,NNW,337,9.4,12.1,26,0.00,,---,0.00,VWS V14.00,2013-03-02 03:44:00,
2013-03-01 22:48:00,15.4,-13.3,30.13,NNW,341,11.4,11.4,26,0.00,,---,0.00,VWS V14.00,2013-03-02 03:48:00,
2013-03-01 22:49:00,15.4,-13.3,30.13,NNW,329,8.1,8.7,26,0.00,,---,0.00,VWS V14.00,2013-03-02 03:49:00,
2013-03-01 22:50:00,15.4,-13.3,30.13,NNW,329,8.1,8.7,26,0.00,,---,0.00,VWS V14.00,2013-03-02 03:50:00,
2013-03-01 22:53:00,15.4,-13.3,30.13,NNW,345,8.7,11.4,26,0.00,,---,0.00,VWS V14.00,2013-03-02 03:53:00,
2013-03-01 22:55:00,15.4,-13.3,30.13,North,0,8.7,12.1,26,0.00,,---,0.00,VWS V14.00,2013-03-02 03:55:00,
2013-03-01 22:58:00,15.4,-13.3,30.13,NNW,339,7.4,8.7,26,0.00,,---,0.00,VWS V14.00,2013-03-02 03:58:00,
2013-03-01 22:59:00,15.6,-13.1,30.13,North,353,8.7,9.4,26,0.00,,---,0.00,VWS V14.00,2013-03-02 03:59:00,
2013-03-01 23:00:00,15.6,-13.1,30.13,North,4,11.4,11.4,26,0.00,,---,0.00,VWS V14.00,2013-03-02 04:00:00,
2013-03-01 23:03:00,15.8,-13.0,30.13,NNW,342,9.4,9.4,26,0.00,,---,0.00,VWS V14.00,2013-03-02 04:03:00,
2013-03-01 23:04:00,15.8,-13.0,30.13,North,349,8.7,9.4,26,0.00,,---,0.00,VWS V14.00,2013-03-02 04:04:00,
2013-03-01 23:05:00,15.8,-13.0,30.13,NNW,344,9.4,9.4,26,0.00,,---,0.00,VWS V14.00,2013-03-02 04:05:00,
2013-03-01 23:08:00,15.8,-13.0,30.13,North,353,8.7,8.7,26,0.00,,---,0.00,VWS V14.00,2013-03-02 04:08:00,
2013-03-01 23:09:00,15.8,-13.0,30.13,NNW,333,7.4,8.7,26,0.00,,---,0.00,VWS V14.00,2013-03-02 04:09:00,
2013-03-01 23:10:00,16.0,-12.8,30.13,NNW,343,8.7,8.7,26,0.00,,---,0.00,VWS V14.00,2013-03-02 04:10:00,
2013-03-01 23:13:00,16.0,-12.8,30.13,NNW,345,8.7,9.4,26,0.00,,---,0.00,VWS V14.00,2013-03-02 04:13:00,
2013-03-01 23:14:00,16.0,-12.8,30.13,NNW,348,7.4,9.4,26,0.00,,---,0.00,VWS V14.00,2013-03-02 04:14:00,
2013-03-01 23:15:00,16.0,-12.8,30.13,NNW,338,6.0,8.1,26,0.00,,---,0.00,VWS V14.00,2013-03-02 04:15:00,
2013-03-01 23:18:00,16.0,-12.8,30.13,North,353,8.1,9.4,26,0.00,,---,0.00,VWS V14.00,2013-03-02 04:18:00,
2013-03-01 23:19:00,16.0,-12.8,30.13,North,0,5.4,9.4,26,0.00,,---,0.00,VWS V14.00,2013-03-02 04:19:00,
2013-03-01 23:20:00,16.0,-12.8,30.13,NNW,343,6.0,8.7,26,0.00,,---,0.00,VWS V14.00,2013-03-02 04:20:00,
2013-03-01 23:23:00,16.0,-12.8,30.13,NNW,346,8.1,8.7,26,0.00,,---,0.00,VWS V14.00,2013-03-02 04:23:00,
2013-03-01 23:24:00,16.0,-12.8,30.13,North,353,8.1,8.7,26,0.00,,---,0.00,VWS V14.00,2013-03-02 04:24:00,
2013-03-01 23:25:00,16.0,-12.8,30.13,North,0,8.1,8.7,26,0.00,,---,0.00,VWS V14.00,2013-03-02 04:25:00,
2013-03-01 23:28:00,16.0,-12.8,30.13,NNW,341,7.4,8.7,26,0.00,,---,0.00,VWS V14.00,2013-03-02 04:28:00,
2013-03-01 23:29:00,16.0,-12.8,30.13,North,3,7.4,7.4,26,0.00,,---,0.00,VWS V14.00,2013-03-02 04:29:00,
2013-03-01 23:30:00,16.2,-12.7,30.13,North,0,5.4,12.1,26,0.00,,---,0.00,VWS V14.00,2013-03-02 04:30:00,
2013-03-01 23:31:00,16.2,-12.7,30.13,NNW,344,11.4,12.1,26,0.00,,---,0.00,VWS V14.00,2013-03-02 04:31:00,
2013-03-01 23:33:00,16.2,-12.7,30.13,NNW,334,8.7,9.4,26,0.00,,---,0.00,VWS V14.00,2013-03-02 04:33:00,
2013-03-01 23:34:00,16.2,-12.7,30.13,NNW,332,8.7,8.7,26,0.00,,---,0.00,VWS V14.00,2013-03-02 04:34:00,
2013-03-01 23:36:00,16.3,-12.5,30.13,North,353,8.1,9.4,26,0.00,,---,0.00,VWS V14.00,2013-03-02 04:36:00,
2013-03-01 23:38:00,16.2,-12.7,30.13,North,0,8.1,8.7,26,0.00,,---,0.00,VWS V14.00,2013-03-02 04:38:00,
2013-03-01 23:39:00,16.2,-12.7,30.13,North,353,12.1,12.1,26,0.00,,---,0.00,VWS V14.00,2013-03-02 04:39:00,
2013-03-01 23:41:00,16.2,-12.7,30.13,North,1,8.7,11.4,26,0.00,,---,0.00,VWS V14.00,2013-03-02 04:41:00,
2013-03-01 23:44:00,16.2,-12.7,30.13,North,349,8.7,9.4,26,0.00,,---,0.00,VWS V14.00,2013-03-02 04:44:00,
2013-03-01 23:46:00,16.2,-12.7,30.13,North,353,8.1,8.7,26,0.00,,---,0.00,VWS V14.00,2013-03-02 04:46:00,
2013-03-01 23:49:00,16.2,-12.7,30.13,North,353,8.1,8.1,26,0.00,,---,0.00,VWS V14.00,2013-03-02 04:49:00,
2013-03-01 23:51:00,16.0,-12.8,30.10,North,4,6.0,6.0,26,0.00,,---,0.00,VWS V14.00,2013-03-02 04:51:00,
2013-03-01 23:54:00,15.8,-13.0,30.10,North,3,8.7,8.7,26,0.00,,---,0.00,VWS V14.00,2013-03-02 04:54:00,
2013-03-01 23:56:00,15.8,-13.0,30.10,North,0,7.4,8.1,26,0.00,,---,0.00,VWS V14.00,2013-03-02 04:56:00,
2013-03-01 23:59:00,15.8,-13.0,30.10,North,3,8.1,8.1,26,0.00,,---,0.00,VWS V14.00,2013-03-02 04:59:00,